2016 Cux-Wetter.de -Die Nutzung der Wetterdaten nur mit ausdrcklicher Genehmigung
Wetterdaten: Montag, 11.06.2018
Datum Zeit Temp. A. Feuchte A. Luftdruck Regen Wind Richtung Richtung Sonnenschein Solar Taupunkt Windchill Windben
11.06.2018 00:00 15,9 C 78 % 1012,2 hPa 0,0 l/m 9,9 km/h (2 Bft) NW 305 0 min 0 W/m 12,1 C 14,2 C 25,7 km/h (4 Bft)
11.06.2018 00:03 15,9 C 79 % 1012,3 hPa 0,0 l/m 8,8 km/h (2 Bft) NW 322 0 min 0 W/m 12,3 C 14,7 C 20,9 km/h (4 Bft)
11.06.2018 00:06 15,9 C 79 % 1012,2 hPa 0,0 l/m 9,1 km/h (2 Bft) N-NW 336 0 min 0 W/m 12,3 C 14,5 C 17,7 km/h (3 Bft)
11.06.2018 00:09 15,8 C 78 % 1012,2 hPa 0,0 l/m 9,0 km/h (2 Bft) W 281 0 min 0 W/m 12,0 C 14,5 C 16,1 km/h (3 Bft)
11.06.2018 00:12 15,7 C 78 % 1012,3 hPa 0,0 l/m 10,3 km/h (2 Bft) W 259 0 min 0 W/m 11,9 C 13,8 C 17,7 km/h (3 Bft)
11.06.2018 00:15 15,6 C 78 % 1012,3 hPa 0,0 l/m 8,4 km/h (2 Bft) W-NW 300 0 min 0 W/m 11,8 C 14,5 C 17,7 km/h (3 Bft)
11.06.2018 00:18 15,6 C 78 % 1012,3 hPa 0,0 l/m 8,1 km/h (2 Bft) W 267 0 min 0 W/m 11,8 C 14,7 C 16,1 km/h (3 Bft)
11.06.2018 00:21 15,6 C 78 % 1012,3 hPa 0,0 l/m 9,4 km/h (2 Bft) NW 304 0 min 0 W/m 11,8 C 14,1 C 20,9 km/h (4 Bft)
11.06.2018 00:24 15,6 C 78 % 1012,2 hPa 0,0 l/m 7,7 km/h (2 Bft) W-SW 241 0 min 0 W/m 11,8 C 14,9 C 16,1 km/h (3 Bft)
11.06.2018 00:27 15,6 C 78 % 1012,2 hPa 0,0 l/m 9,2 km/h (2 Bft) N-NW 335 0 min 0 W/m 11,8 C 14,1 C 19,3 km/h (3 Bft)
11.06.2018 00:30 15,4 C 77 % 1012,1 hPa 0,0 l/m 12,0 km/h (2 Bft) W 271 0 min 0 W/m 11,4 C 12,7 C 20,9 km/h (4 Bft)
11.06.2018 00:33 15,4 C 77 % 1012,1 hPa 0,0 l/m 6,7 km/h (2 Bft) W-NW 284 0 min 0 W/m 11,4 C 15,2 C 16,1 km/h (3 Bft)
11.06.2018 00:36 15,4 C 77 % 1012,1 hPa 0,0 l/m 6,3 km/h (2 Bft) W-NW 292 0 min 0 W/m 11,4 C 15,4 C 17,7 km/h (3 Bft)
11.06.2018 00:39 15,3 C 76 % 1012,1 hPa 0,0 l/m 10,4 km/h (2 Bft) W 279 0 min 0 W/m 11,1 C 13,3 C 17,7 km/h (3 Bft)
11.06.2018 00:42 15,3 C 76 % 1012,0 hPa 0,0 l/m 4,9 km/h (1 Bft) W-NW 290 0 min 0 W/m 11,1 C 15,3 C 14,5 km/h (3 Bft)
11.06.2018 00:45 15,3 C 76 % 1012,0 hPa 0,0 l/m 7,4 km/h (2 Bft) N-NW 327 0 min 0 W/m 11,1 C 14,7 C 16,1 km/h (3 Bft)
11.06.2018 00:48 15,4 C 77 % 1012,0 hPa 0,0 l/m 12,7 km/h (3 Bft) N-NW 338 0 min 0 W/m 11,4 C 12,5 C 20,9 km/h (4 Bft)
11.06.2018 00:51 15,4 C 78 % 1012,0 hPa 0,0 l/m 10,4 km/h (2 Bft) NW 325 0 min 0 W/m 11,6 C 13,4 C 20,9 km/h (4 Bft)
11.06.2018 00:54 15,5 C 78 % 1012,0 hPa 0,0 l/m 7,0 km/h (2 Bft) W 269 0 min 0 W/m 11,7 C 15,2 C 19,3 km/h (3 Bft)
11.06.2018 00:57 15,5 C 78 % 1012,0 hPa 0,0 l/m 7,9 km/h (2 Bft) W 276 0 min 0 W/m 11,7 C 14,7 C 17,7 km/h (3 Bft)
11.06.2018 01:00 15,6 C 79 % 1011,9 hPa 0,0 l/m 6,7 km/h (2 Bft) W 275 0 min 0 W/m 12,0 C 15,4 C 11,3 km/h (2 Bft)
11.06.2018 01:03 15,6 C 79 % 1011,9 hPa 0,0 l/m 7,5 km/h (2 Bft) W 278 0 min 0 W/m 12,0 C 15,0 C 14,5 km/h (3 Bft)
11.06.2018 01:06 15,6 C 79 % 1011,9 hPa 0,0 l/m 6,8 km/h (2 Bft) W 271 0 min 0 W/m 12,0 C 15,4 C 16,1 km/h (3 Bft)
11.06.2018 01:09 15,6 C 79 % 1011,8 hPa 0,0 l/m 9,4 km/h (2 Bft) W 281 0 min 0 W/m 12,0 C 14,1 C 17,7 km/h (3 Bft)
11.06.2018 01:12 15,6 C 79 % 1011,9 hPa 0,0 l/m 11,7 km/h (2 Bft) NW 307 0 min 0 W/m 12,0 C 13,1 C 20,9 km/h (4 Bft)
11.06.2018 01:15 15,5 C 79 % 1012,0 hPa 0,0 l/m 9,1 km/h (2 Bft) W 267 0 min 0 W/m 11,9 C 14,1 C 20,9 km/h (4 Bft)
11.06.2018 01:18 15,5 C 79 % 1012,1 hPa 0,0 l/m 9,3 km/h (2 Bft) NW 309 0 min 0 W/m 11,9 C 14,0 C 19,3 km/h (3 Bft)
11.06.2018 01:21 15,4 C 79 % 1012,0 hPa 0,0 l/m 8,4 km/h (2 Bft) W 264 0 min 0 W/m 11,8 C 14,3 C 17,7 km/h (3 Bft)
11.06.2018 01:24 15,4 C 79 % 1012,0 hPa 0,0 l/m 6,1 km/h (2 Bft) NW 312 0 min 0 W/m 11,8 C 15,4 C 12,9 km/h (3 Bft)
11.06.2018 01:27 15,4 C 79 % 1012,0 hPa 0,0 l/m 4,8 km/h (1 Bft) W-SW 257 0 min 0 W/m 11,8 C 15,4 C 12,9 km/h (3 Bft)
11.06.2018 01:30 15,4 C 79 % 1012,0 hPa 0,0 l/m 7,7 km/h (2 Bft) W 264 0 min 0 W/m 11,8 C 14,7 C 14,5 km/h (3 Bft)
11.06.2018 01:33 15,4 C 79 % 1011,9 hPa 0,0 l/m 6,4 km/h (2 Bft) W 277 0 min 0 W/m 11,8 C 15,4 C 14,5 km/h (3 Bft)
11.06.2018 01:36 15,4 C 78 % 1011,9 hPa 0,0 l/m 11,0 km/h (2 Bft) W-NW 302 0 min 0 W/m 11,6 C 13,1 C 19,3 km/h (3 Bft)
11.06.2018 01:39 15,4 C 79 % 1011,9 hPa 0,0 l/m 7,0 km/h (2 Bft) NW 319 0 min 0 W/m 11,8 C 15,1 C 20,9 km/h (4 Bft)
11.06.2018 01:42 15,4 C 79 % 1011,9 hPa 0,0 l/m 4,9 km/h (1 Bft) N-NW 344 0 min 0 W/m 11,8 C 15,4 C 12,9 km/h (3 Bft)
11.06.2018 01:45 15,4 C 80 % 1011,9 hPa 0,0 l/m 7,7 km/h (2 Bft) NW 306 0 min 0 W/m 12,0 C 14,7 C 14,5 km/h (3 Bft)
11.06.2018 01:48 15,4 C 79 % 1011,8 hPa 0,0 l/m 9,2 km/h (2 Bft) N 5 0 min 0 W/m 11,8 C 13,9 C 17,7 km/h (3 Bft)
11.06.2018 01:51 15,4 C 80 % 1011,8 hPa 0,0 l/m 7,4 km/h (2 Bft) W-NW 286 0 min 0 W/m 12,0 C 14,8 C 19,3 km/h (3 Bft)
11.06.2018 01:54 15,4 C 80 % 1011,8 hPa 0,0 l/m 7,0 km/h (2 Bft) W-NW 301 0 min 0 W/m 12,0 C 15,1 C 17,7 km/h (3 Bft)
11.06.2018 01:57 15,4 C 80 % 1011,9 hPa 0,0 l/m 10,1 km/h (2 Bft) NW 320 0 min 0 W/m 12,0 C 13,5 C 16,1 km/h (3 Bft)
11.06.2018 02:00 15,5 C 80 % 1012,0 hPa 0,0 l/m 6,9 km/h (2 Bft) N 360 0 min 0 W/m 12,1 C 15,2 C 17,7 km/h (3 Bft)
11.06.2018 02:03 15,5 C 81 % 1012,0 hPa 0,0 l/m 7,3 km/h (2 Bft) W 274 0 min 0 W/m 12,3 C 15,0 C 14,5 km/h (3 Bft)
11.06.2018 02:06 15,5 C 81 % 1011,9 hPa 0,0 l/m 5,4 km/h (2 Bft) NW 309 0 min 0 W/m 12,3 C 15,5 C 12,9 km/h (3 Bft)
11.06.2018 02:09 15,6 C 80 % 1011,9 hPa 0,0 l/m 6,2 km/h (2 Bft) NW 305 0 min 0 W/m 12,2 C 15,6 C 17,7 km/h (3 Bft)
11.06.2018 02:12 15,6 C 80 % 1011,9 hPa 0,0 l/m 7,1 km/h (2 Bft) W 270 0 min 0 W/m 12,2 C 15,2 C 14,5 km/h (3 Bft)
11.06.2018 02:15 15,6 C 80 % 1011,9 hPa 0,0 l/m 8,5 km/h (2 Bft) W-NW 297 0 min 0 W/m 12,2 C 14,5 C 14,5 km/h (3 Bft)
11.06.2018 02:18 15,6 C 80 % 1012,0 hPa 0,0 l/m 7,4 km/h (2 Bft) W-NW 283 0 min 0 W/m 12,2 C 15,1 C 14,5 km/h (3 Bft)
11.06.2018 02:21 15,6 C 80 % 1012,0 hPa 0,0 l/m 8,3 km/h (2 Bft) NW 308 0 min 0 W/m 12,2 C 14,6 C 14,5 km/h (3 Bft)
11.06.2018 02:24 15,6 C 80 % 1012,0 hPa 0,0 l/m 9,9 km/h (2 Bft) W-SW 255 0 min 0 W/m 12,2 C 13,8 C 16,1 km/h (3 Bft)
11.06.2018 02:27 15,6 C 80 % 1012,0 hPa 0,0 l/m 8,3 km/h (2 Bft) W 272 0 min 0 W/m 12,2 C 14,6 C 16,1 km/h (3 Bft)
11.06.2018 02:30 15,6 C 81 % 1012,0 hPa 0,0 l/m 9,5 km/h (2 Bft) W 265 0 min 0 W/m 12,3 C 14,0 C 19,3 km/h (3 Bft)
11.06.2018 02:33 15,7 C 81 % 1011,9 hPa 0,0 l/m 9,7 km/h (2 Bft) W 273 0 min 0 W/m 12,4 C 14,0 C 19,3 km/h (3 Bft)
11.06.2018 02:36 15,6 C 81 % 1011,9 hPa 0,0 l/m 5,6 km/h (2 Bft) W 278 0 min 0 W/m 12,3 C 15,6 C 11,3 km/h (2 Bft)
11.06.2018 02:39 15,6 C 82 % 1011,9 hPa 0,0 l/m 9,3 km/h (2 Bft) W-SW 242 0 min 0 W/m 12,5 C 14,1 C 19,3 km/h (3 Bft)
11.06.2018 02:42 15,6 C 82 % 1011,8 hPa 0,0 l/m 10,3 km/h (2 Bft) W-SW 254 0 min 0 W/m 12,5 C 13,7 C 17,7 km/h (3 Bft)
11.06.2018 02:45 15,6 C 82 % 1011,8 hPa 0,0 l/m 7,8 km/h (2 Bft) W-SW 244 0 min 0 W/m 12,5 C 14,8 C 22,5 km/h (4 Bft)
11.06.2018 02:48 15,6 C 82 % 1011,8 hPa 0,0 l/m 11,1 km/h (2 Bft) W-SW 255 0 min 0 W/m 12,5 C 13,3 C 19,3 km/h (3 Bft)
11.06.2018 02:51 15,6 C 82 % 1011,8 hPa 0,0 l/m 7,6 km/h (2 Bft) W 278 0 min 0 W/m 12,5 C 14,9 C 17,7 km/h (3 Bft)
11.06.2018 02:54 15,6 C 82 % 1011,8 hPa 0,0 l/m 9,9 km/h (2 Bft) W 272 0 min 0 W/m 12,5 C 13,8 C 19,3 km/h (3 Bft)
11.06.2018 02:57 15,6 C 82 % 1011,8 hPa 0,0 l/m 11,1 km/h (2 Bft) W-SW 257 0 min 0 W/m 12,5 C 13,3 C 17,7 km/h (3 Bft)
11.06.2018 03:00 15,5 C 82 % 1011,8 hPa 0,0 l/m 9,1 km/h (2 Bft) NW 313 0 min 0 W/m 12,4 C 14,1 C 17,7 km/h (3 Bft)
11.06.2018 03:03 15,5 C 82 % 1011,7 hPa 0,0 l/m 7,5 km/h (2 Bft) W 263 0 min 0 W/m 12,4 C 14,9 C 12,9 km/h (3 Bft)
11.06.2018 03:06 15,5 C 82 % 1011,7 hPa 0,0 l/m 10,9 km/h (2 Bft) W-SW 257 0 min 0 W/m 12,4 C 13,3 C 24,1 km/h (4 Bft)
11.06.2018 03:09 15,5 C 83 % 1011,7 hPa 0,0 l/m 8,2 km/h (2 Bft) W-NW 283 0 min 0 W/m 12,6 C 14,5 C 16,1 km/h (3 Bft)
11.06.2018 03:12 15,5 C 82 % 1011,7 hPa 0,0 l/m 9,4 km/h (2 Bft) W 274 0 min 0 W/m 12,4 C 13,9 C 19,3 km/h (3 Bft)
11.06.2018 03:15 15,4 C 82 % 1011,8 hPa 0,0 l/m 10,1 km/h (2 Bft) SW 228 0 min 0 W/m 12,3 C 13,5 C 24,1 km/h (4 Bft)
11.06.2018 03:18 15,4 C 82 % 1011,8 hPa 0,0 l/m 6,2 km/h (2 Bft) W 268 0 min 0 W/m 12,3 C 15,4 C 17,7 km/h (3 Bft)
11.06.2018 03:21 15,4 C 81 % 1011,8 hPa 0,0 l/m 5,6 km/h (2 Bft) W-NW 293 0 min 0 W/m 12,2 C 15,4 C 16,1 km/h (3 Bft)
11.06.2018 03:24 15,4 C 81 % 1011,8 hPa 0,0 l/m 7,9 km/h (2 Bft) W 261 0 min 0 W/m 12,2 C 14,6 C 19,3 km/h (3 Bft)
11.06.2018 03:27 15,4 C 80 % 1011,8 hPa 0,0 l/m 10,5 km/h (2 Bft) W 268 0 min 0 W/m 12,0 C 13,3 C 17,7 km/h (3 Bft)
11.06.2018 03:30 15,4 C 80 % 1011,7 hPa 0,0 l/m 7,8 km/h (2 Bft) N-NW 327 0 min 0 W/m 12,0 C 14,6 C 14,5 km/h (3 Bft)
11.06.2018 03:33 15,4 C 80 % 1011,6 hPa 0,0 l/m 5,5 km/h (2 Bft) W-NW 295 0 min 0 W/m 12,0 C 15,4 C 12,9 km/h (3 Bft)
11.06.2018 03:36 15,4 C 80 % 1011,7 hPa 0,0 l/m 8,3 km/h (2 Bft) W 276 0 min 0 W/m 12,0 C 14,4 C 17,7 km/h (3 Bft)
11.06.2018 03:39 15,4 C 79 % 1011,6 hPa 0,0 l/m 9,4 km/h (2 Bft) W-NW 284 0 min 0 W/m 11,8 C 13,8 C 17,7 km/h (3 Bft)
11.06.2018 03:42 15,3 C 79 % 1011,6 hPa 0,0 l/m 6,4 km/h (2 Bft) NW 305 0 min 0 W/m 11,7 C 15,3 C 19,3 km/h (3 Bft)
11.06.2018 03:45 15,3 C 78 % 1011,6 hPa 0,0 l/m 7,9 km/h (2 Bft) W 277 0 min 0 W/m 11,5 C 14,5 C 17,7 km/h (3 Bft)
11.06.2018 03:48 15,3 C 78 % 1011,5 hPa 0,0 l/m 10,2 km/h (2 Bft) W 262 0 min 0 W/m 11,5 C 13,4 C 20,9 km/h (4 Bft)
11.06.2018 03:51 15,3 C 78 % 1011,5 hPa 0,0 l/m 9,4 km/h (2 Bft) W 260 0 min 0 W/m 11,5 C 13,7 C 24,1 km/h (4 Bft)
11.06.2018 03:54 15,3 C 78 % 1011,4 hPa 0,0 l/m 9,2 km/h (2 Bft) W-SW 243 0 min 0 W/m 11,5 C 13,8 C 17,7 km/h (3 Bft)
11.06.2018 03:57 15,3 C 78 % 1011,4 hPa 0,0 l/m 6,2 km/h (2 Bft) W-NW 296 0 min 0 W/m 11,5 C 15,3 C 16,1 km/h (3 Bft)
11.06.2018 04:00 15,3 C 78 % 1011,3 hPa 0,0 l/m 8,5 km/h (2 Bft) W-NW 284 0 min 0 W/m 11,5 C 14,2 C 16,1 km/h (3 Bft)
11.06.2018 04:03 15,3 C 79 % 1011,3 hPa 0,0 l/m 3,4 km/h (1 Bft) W 267 0 min 0 W/m 11,7 C 15,3 C 12,9 km/h (3 Bft)
11.06.2018 04:06 15,3 C 79 % 1011,2 hPa 0,0 l/m 5,0 km/h (1 Bft) W-NW 299 0 min 0 W/m 11,7 C 15,3 C 11,3 km/h (2 Bft)
11.06.2018 04:09 15,3 C 79 % 1011,1 hPa 0,0 l/m 6,0 km/h (2 Bft) NW 317 0 min 0 W/m 11,7 C 15,3 C 14,5 km/h (3 Bft)
11.06.2018 04:12 15,3 C 79 % 1011,1 hPa 0,0 l/m 12,7 km/h (3 Bft) W-NW 301 0 min 0 W/m 11,7 C 12,4 C 20,9 km/h (4 Bft)
11.06.2018 04:15 15,2 C 78 % 1011,1 hPa 0,0 l/m 10,6 km/h (2 Bft) W-NW 286 0 min 0 W/m 11,4 C 13,1 C 19,3 km/h (3 Bft)
11.06.2018 04:18 15,2 C 78 % 1011,1 hPa 0,0 l/m 9,6 km/h (2 Bft) N-NW 328 0 min 0 W/m 11,4 C 13,5 C 19,3 km/h (3 Bft)
11.06.2018 04:21 15,2 C 77 % 1011,2 hPa 0,0 l/m 10,8 km/h (2 Bft) N-NW 333 0 min 0 W/m 11,2 C 13,0 C 20,9 km/h (4 Bft)
11.06.2018 04:24 15,3 C 78 % 1011,1 hPa 0,0 l/m 10,6 km/h (2 Bft) NW 323 0 min 0 W/m 11,5 C 13,2 C 20,9 km/h (4 Bft)
11.06.2018 04:27 15,3 C 78 % 1011,1 hPa 0,0 l/m 7,9 km/h (2 Bft) W-NW 288 0 min 0 W/m 11,5 C 14,5 C 17,7 km/h (3 Bft)
11.06.2018 04:30 15,4 C 78 % 1011,1 hPa 0,0 l/m 8,6 km/h (2 Bft) NW 323 0 min 0 W/m 11,6 C 14,2 C 17,7 km/h (3 Bft)
11.06.2018 04:33 15,4 C 79 % 1011,1 hPa 0,0 l/m 9,8 km/h (2 Bft) NW 306 0 min 0 W/m 11,8 C 13,6 C 19,3 km/h (3 Bft)
11.06.2018 04:36 15,4 C 79 % 1011,2 hPa 0,0 l/m 9,2 km/h (2 Bft) NW 305 0 min 0 W/m 11,8 C 13,9 C 16,1 km/h (3 Bft)
11.06.2018 04:39 15,4 C 78 % 1011,3 hPa 0,0 l/m 8,7 km/h (2 Bft) W-SW 250 0 min 0 W/m 11,6 C 14,2 C 17,7 km/h (3 Bft)
11.06.2018 04:42 15,4 C 78 % 1011,2 hPa 0,0 l/m 9,5 km/h (2 Bft) NW 323 0 min 0 W/m 11,6 C 13,8 C 17,7 km/h (3 Bft)
11.06.2018 04:45 15,5 C 79 % 1011,2 hPa 0,0 l/m 9,5 km/h (2 Bft) W-NW 283 0 min 0 W/m 11,9 C 13,9 C 17,7 km/h (3 Bft)
11.06.2018 04:48 15,6 C 79 % 1011,2 hPa 0,0 l/m 9,0 km/h (2 Bft) NW 306 0 min 0 W/m 12,0 C 14,2 C 17,7 km/h (3 Bft)
11.06.2018 04:51 15,5 C 78 % 1011,2 hPa 0,0 l/m 10,7 km/h (2 Bft) N-NW 344 0 min 0 W/m 11,7 C 13,4 C 22,5 km/h (4 Bft)
11.06.2018 04:54 15,5 C 78 % 1011,3 hPa 0,0 l/m 11,4 km/h (2 Bft) N 11 0 min 0 W/m 11,7 C 13,1 C 20,9 km/h (4 Bft)
11.06.2018 04:57 15,6 C 78 % 1011,4 hPa 0,0 l/m 10,1 km/h (2 Bft) NW 323 0 min 0 W/m 11,8 C 13,7 C 20,9 km/h (4 Bft)
11.06.2018 05:00 15,5 C 78 % 1011,5 hPa 0,0 l/m 8,5 km/h (2 Bft) W-SW 251 0 min 0 W/m 11,7 C 14,4 C 17,7 km/h (3 Bft)
11.06.2018 05:03 15,5 C 78 % 1011,6 hPa 0,0 l/m 6,3 km/h (2 Bft) SW 234 0 min 0 W/m 11,7 C 15,5 C 16,1 km/h (3 Bft)
11.06.2018 05:06 15,4 C 77 % 1011,6 hPa 0,0 l/m 8,0 km/h (2 Bft) N-NW 327 0 min 5 W/m 11,4 C 14,5 C 17,7 km/h (3 Bft)
11.06.2018 05:09 15,4 C 77 % 1011,5 hPa 0,0 l/m 6,8 km/h (2 Bft) W-SW 251 0 min 5 W/m 11,4 C 15,2 C 14,5 km/h (3 Bft)
11.06.2018 05:12 15,3 C 77 % 1011,6 hPa 0,0 l/m 5,1 km/h (1 Bft) N-NW 329 0 min 5 W/m 11,3 C 15,3 C 14,5 km/h (3 Bft)
11.06.2018 05:15 15,3 C 77 % 1011,6 hPa 0,0 l/m 6,0 km/h (2 Bft) W-NW 296 0 min 0 W/m 11,3 C 15,3 C 14,5 km/h (3 Bft)
11.06.2018 05:18 15,4 C 77 % 1011,6 hPa 0,0 l/m 5,6 km/h (2 Bft) N-NW 329 0 min 5 W/m 11,4 C 15,4 C 12,9 km/h (3 Bft)
11.06.2018 05:21 15,4 C 77 % 1011,6 hPa 0,0 l/m 7,0 km/h (2 Bft) N-NW 338 0 min 5 W/m 11,4 C 15,1 C 14,5 km/h (3 Bft)
11.06.2018 05:24 15,4 C 77 % 1011,7 hPa 0,0 l/m 6,7 km/h (2 Bft) NW 319 0 min 5 W/m 11,4 C 15,2 C 14,5 km/h (3 Bft)
11.06.2018 05:27 15,5 C 78 % 1011,7 hPa 0,0 l/m 7,5 km/h (2 Bft) NW 307 0 min 5 W/m 11,7 C 14,9 C 17,7 km/h (3 Bft)
11.06.2018 05:30 15,6 C 78 % 1011,7 hPa 0,0 l/m 8,3 km/h (2 Bft) W 271 0 min 5 W/m 11,8 C 14,6 C 16,1 km/h (3 Bft)
11.06.2018 05:33 15,6 C 78 % 1011,8 hPa 0,0 l/m 6,1 km/h (2 Bft) W-NW 283 0 min 7 W/m 11,8 C 15,6 C 11,3 km/h (2 Bft)
11.06.2018 05:36 15,6 C 79 % 1011,7 hPa 0,0 l/m 6,7 km/h (2 Bft) W 259 0 min 7 W/m 12,0 C 15,4 C 14,5 km/h (3 Bft)
11.06.2018 05:39 15,6 C 80 % 1011,7 hPa 0,0 l/m 4,1 km/h (1 Bft) W-NW 297 0 min 11 W/m 12,2 C 15,6 C 11,3 km/h (2 Bft)
11.06.2018 05:42 15,6 C 81 % 1011,8 hPa 0,0 l/m 7,2 km/h (2 Bft) W 278 0 min 12 W/m 12,3 C 15,2 C 14,5 km/h (3 Bft)
11.06.2018 05:45 15,6 C 81 % 1011,8 hPa 0,0 l/m 5,5 km/h (2 Bft) W 277 0 min 12 W/m 12,3 C 15,6 C 16,1 km/h (3 Bft)
11.06.2018 05:48 15,6 C 81 % 1011,8 hPa 0,0 l/m 8,4 km/h (2 Bft) W-NW 298 0 min 18 W/m 12,3 C 14,5 C 20,9 km/h (4 Bft)
11.06.2018 05:51 15,5 C 81 % 1011,9 hPa 0,0 l/m 6,2 km/h (2 Bft) N-NW 342 0 min 14 W/m 12,3 C 15,5 C 16,1 km/h (3 Bft)
11.06.2018 05:54 15,5 C 81 % 1011,8 hPa 0,0 l/m 5,3 km/h (1 Bft) NW 321 0 min 14 W/m 12,3 C 15,5 C 14,5 km/h (3 Bft)
11.06.2018 05:57 15,4 C 81 % 1011,8 hPa 0,0 l/m 5,2 km/h (1 Bft) W 277 0 min 14 W/m 12,2 C 15,4 C 12,9 km/h (3 Bft)
11.06.2018 06:00 15,5 C 81 % 1011,9 hPa 0,0 l/m 7,6 km/h (2 Bft) N 355 0 min 14 W/m 12,3 C 14,8 C 17,7 km/h (3 Bft)
11.06.2018 06:03 15,4 C 81 % 1011,9 hPa 0,0 l/m 7,1 km/h (2 Bft) W-NW 293 0 min 14 W/m 12,2 C 15,0 C 14,5 km/h (3 Bft)
11.06.2018 06:06 15,4 C 81 % 1011,9 hPa 0,0 l/m 8,7 km/h (2 Bft) W 267 0 min 16 W/m 12,2 C 14,2 C 17,7 km/h (3 Bft)
11.06.2018 06:09 15,5 C 80 % 1011,9 hPa 0,0 l/m 6,2 km/h (2 Bft) W-NW 287 0 min 16 W/m 12,1 C 15,5 C 16,1 km/h (3 Bft)
11.06.2018 06:12 15,4 C 80 % 1011,8 hPa 0,0 l/m 5,4 km/h (2 Bft) W 273 0 min 18 W/m 12,0 C 15,4 C 17,7 km/h (3 Bft)
11.06.2018 06:15 15,4 C 80 % 1011,8 hPa 0,0 l/m 7,5 km/h (2 Bft) NW 315 0 min 23 W/m 12,0 C 14,8 C 19,3 km/h (3 Bft)
11.06.2018 06:18 15,4 C 79 % 1011,7 hPa 0,0 l/m 5,9 km/h (2 Bft) W-SW 254 0 min 32 W/m 11,8 C 15,4 C 12,9 km/h (3 Bft)
11.06.2018 06:21 15,4 C 79 % 1011,8 hPa 0,0 l/m 8,4 km/h (2 Bft) N-NW 343 0 min 33 W/m 11,8 C 14,3 C 16,1 km/h (3 Bft)
11.06.2018 06:24 15,4 C 79 % 1011,7 hPa 0,0 l/m 8,5 km/h (2 Bft) W 275 0 min 37 W/m 11,8 C 14,3 C 17,7 km/h (3 Bft)
11.06.2018 06:27 15,4 C 79 % 1011,7 hPa 0,0 l/m 6,5 km/h (2 Bft) W 281 0 min 44 W/m 11,8 C 15,4 C 16,1 km/h (3 Bft)
11.06.2018 06:30 15,5 C 79 % 1011,7 hPa 0,0 l/m 5,1 km/h (1 Bft) W-NW 284 0 min 39 W/m 11,9 C 15,5 C 11,3 km/h (2 Bft)
11.06.2018 06:33 15,6 C 79 % 1011,7 hPa 0,0 l/m 6,8 km/h (2 Bft) W-NW 283 0 min 39 W/m 12,0 C 15,4 C 16,1 km/h (3 Bft)
11.06.2018 06:36 15,6 C 80 % 1011,7 hPa 0,0 l/m 6,7 km/h (2 Bft) W-NW 302 0 min 35 W/m 12,2 C 15,4 C 16,1 km/h (3 Bft)
11.06.2018 06:39 15,6 C 80 % 1011,7 hPa 0,0 l/m 7,8 km/h (2 Bft) W-NW 286 0 min 46 W/m 12,2 C 14,8 C 19,3 km/h (3 Bft)
11.06.2018 06:42 15,6 C 79 % 1011,6 hPa 0,0 l/m 7,3 km/h (2 Bft) W-NW 284 0 min 54 W/m 12,0 C 15,1 C 14,5 km/h (3 Bft)
11.06.2018 06:45 15,6 C 79 % 1011,6 hPa 0,0 l/m 7,2 km/h (2 Bft) NW 313 0 min 54 W/m 12,0 C 15,2 C 20,9 km/h (4 Bft)
11.06.2018 06:48 15,6 C 79 % 1011,5 hPa 0,0 l/m 8,4 km/h (2 Bft) N-NW 339 0 min 47 W/m 12,0 C 14,5 C 17,7 km/h (3 Bft)
11.06.2018 06:51 15,6 C 79 % 1011,5 hPa 0,0 l/m 7,5 km/h (2 Bft) W 277 0 min 53 W/m 12,0 C 15,0 C 16,1 km/h (3 Bft)
11.06.2018 06:54 15,6 C 79 % 1011,4 hPa 0,0 l/m 11,1 km/h (2 Bft) NW 321 0 min 62 W/m 12,0 C 13,3 C 19,3 km/h (3 Bft)
11.06.2018 06:57 15,6 C 79 % 1011,4 hPa 0,0 l/m 9,9 km/h (2 Bft) NW 308 0 min 69 W/m 12,0 C 13,8 C 17,7 km/h (3 Bft)
11.06.2018 07:00 15,6 C 79 % 1011,4 hPa 0,0 l/m 8,8 km/h (2 Bft) W-NW 294 0 min 79 W/m 12,0 C 14,3 C 19,3 km/h (3 Bft)
11.06.2018 07:03 15,6 C 79 % 1011,4 hPa 0,0 l/m 6,2 km/h (2 Bft) N-NW 340 0 min 69 W/m 12,0 C 15,6 C 14,5 km/h (3 Bft)
11.06.2018 07:06 15,7 C 79 % 1011,3 hPa 0,0 l/m 7,9 km/h (2 Bft) W-NW 299 0 min 67 W/m 12,1 C 14,9 C 19,3 km/h (3 Bft)
11.06.2018 07:09 15,7 C 79 % 1011,3 hPa 0,0 l/m 5,9 km/h (2 Bft) W 279 0 min 76 W/m 12,1 C 15,7 C 14,5 km/h (3 Bft)
11.06.2018 07:12 15,8 C 80 % 1011,4 hPa 0,0 l/m 8,4 km/h (2 Bft) NW 325 0 min 93 W/m 12,4 C 14,7 C 17,7 km/h (3 Bft)
11.06.2018 07:15 15,8 C 80 % 1011,4 hPa 0,0 l/m 10,6 km/h (2 Bft) NW 316 0 min 105 W/m 12,4 C 13,7 C 19,3 km/h (3 Bft)
11.06.2018 07:18 15,9 C 79 % 1011,4 hPa 0,0 l/m 10,7 km/h (2 Bft) N-NW 341 0 min 114 W/m 12,3 C 13,8 C 17,7 km/h (3 Bft)
11.06.2018 07:21 15,9 C 78 % 1011,4 hPa 0,0 l/m 13,1 km/h (3 Bft) N-NW 329 0 min 114 W/m 12,1 C 12,9 C 24,1 km/h (4 Bft)
11.06.2018 07:24 16,0 C 77 % 1011,4 hPa 0,0 l/m 14,7 km/h (3 Bft) N-NW 330 0 min 86 W/m 12,0 C 12,5 C 20,9 km/h (4 Bft)
11.06.2018 07:27 16,1 C 78 % 1011,5 hPa 0,0 l/m 12,1 km/h (2 Bft) NW 307 0 min 76 W/m 12,3 C 13,5 C 19,3 km/h (3 Bft)
11.06.2018 07:30 16,1 C 78 % 1011,5 hPa 0,0 l/m 11,2 km/h (2 Bft) N-NW 333 0 min 74 W/m 12,3 C 13,8 C 20,9 km/h (4 Bft)
11.06.2018 07:33 16,1 C 79 % 1011,6 hPa 0,0 l/m 10,8 km/h (2 Bft) NW 320 0 min 84 W/m 12,5 C 14,0 C 22,5 km/h (4 Bft)
11.06.2018 07:36 16,1 C 79 % 1011,5 hPa 0,0 l/m 10,1 km/h (2 Bft) N-NW 348 0 min 69 W/m 12,5 C 14,3 C 17,7 km/h (3 Bft)
11.06.2018 07:39 16,1 C 79 % 1011,6 hPa 0,0 l/m 12,7 km/h (3 Bft) N 355 0 min 88 W/m 12,5 C 13,3 C 22,5 km/h (4 Bft)
11.06.2018 07:42 16,1 C 78 % 1011,7 hPa 0,0 l/m 13,4 km/h (3 Bft) N-NO 12 0 min 113 W/m 12,3 C 13,0 C 22,5 km/h (4 Bft)
11.06.2018 07:45 16,1 C 77 % 1011,7 hPa 0,0 l/m 13,3 km/h (3 Bft) N-NW 344 0 min 127 W/m 12,1 C 13,1 C 20,9 km/h (4 Bft)
11.06.2018 07:48 16,1 C 76 % 1011,8 hPa 0,0 l/m 14,7 km/h (3 Bft) NW 316 0 min 156 W/m 11,9 C 12,6 C 22,5 km/h (4 Bft)
11.06.2018 07:51 16,2 C 76 % 1011,9 hPa 0,0 l/m 11,6 km/h (2 Bft) N 5 0 min 135 W/m 12,0 C 13,8 C 19,3 km/h (3 Bft)
11.06.2018 07:54 16,3 C 75 % 1011,9 hPa 0,0 l/m 10,8 km/h (2 Bft) NW 314 0 min 107 W/m 11,9 C 14,2 C 19,3 km/h (3 Bft)
11.06.2018 07:57 16,3 C 76 % 1011,9 hPa 0,0 l/m 9,8 km/h (2 Bft) W-NW 290 0 min 95 W/m 12,1 C 14,6 C 19,3 km/h (3 Bft)
11.06.2018 08:00 16,3 C 76 % 1012,0 hPa 0,0 l/m 7,9 km/h (2 Bft) NW 314 0 min 93 W/m 12,1 C 15,5 C 19,3 km/h (3 Bft)
11.06.2018 08:03 16,3 C 77 % 1011,9 hPa 0,0 l/m 6,3 km/h (2 Bft) NW 325 0 min 107 W/m 12,3 C 16,3 C 16,1 km/h (3 Bft)
11.06.2018 08:06 16,3 C 78 % 1012,0 hPa 0,0 l/m 7,0 km/h (2 Bft) NW 310 0 min 121 W/m 12,5 C 16,0 C 19,3 km/h (3 Bft)
11.06.2018 08:09 16,3 C 78 % 1012,0 hPa 0,0 l/m 5,1 km/h (1 Bft) NW 321 0 min 123 W/m 12,5 C 16,3 C 12,9 km/h (3 Bft)
11.06.2018 08:12 16,3 C 78 % 1012,0 hPa 0,0 l/m 6,6 km/h (2 Bft) NW 321 0 min 118 W/m 12,5 C 16,2 C 12,9 km/h (3 Bft)
11.06.2018 08:15 16,3 C 77 % 1012,0 hPa 0,0 l/m 7,8 km/h (2 Bft) N-NW 332 0 min 123 W/m 12,3 C 15,6 C 16,1 km/h (3 Bft)
11.06.2018 08:18 16,3 C 77 % 1012,0 hPa 0,0 l/m 7,5 km/h (2 Bft) N-NW 342 0 min 113 W/m 12,3 C 15,7 C 12,9 km/h (3 Bft)
11.06.2018 08:21 16,4 C 77 % 1012,0 hPa 0,0 l/m 7,1 km/h (2 Bft) NW 315 0 min 98 W/m 12,4 C 16,0 C 12,9 km/h (3 Bft)
11.06.2018 08:24 16,4 C 77 % 1012,1 hPa 0,0 l/m 8,4 km/h (2 Bft) W 269 0 min 120 W/m 12,4 C 15,4 C 16,1 km/h (3 Bft)
11.06.2018 08:27 16,4 C 78 % 1012,1 hPa 0,0 l/m 7,7 km/h (2 Bft) NW 317 0 min 114 W/m 12,6 C 15,7 C 16,1 km/h (3 Bft)
11.06.2018 08:30 16,4 C 77 % 1012,2 hPa 0,0 l/m 10,6 km/h (2 Bft) N-NW 342 0 min 113 W/m 12,4 C 14,4 C 24,1 km/h (4 Bft)
11.06.2018 08:33 16,4 C 77 % 1012,1 hPa 0,0 l/m 9,9 km/h (2 Bft) NW 325 0 min 127 W/m 12,4 C 14,7 C 19,3 km/h (3 Bft)
11.06.2018 08:36 16,4 C 76 % 1012,1 hPa 0,0 l/m 10,5 km/h (2 Bft) N-NW 328 0 min 134 W/m 12,2 C 14,5 C 24,1 km/h (4 Bft)
11.06.2018 08:39 16,4 C 75 % 1012,1 hPa 0,0 l/m 7,6 km/h (2 Bft) NW 315 0 min 148 W/m 12,0 C 15,8 C 12,9 km/h (3 Bft)
11.06.2018 08:42 16,6 C 75 % 1012,1 hPa 0,0 l/m 9,9 km/h (2 Bft) N-NW 346 0 min 160 W/m 12,1 C 14,9 C 19,3 km/h (3 Bft)
11.06.2018 08:45 16,6 C 74 % 1012,1 hPa 0,0 l/m 11,3 km/h (2 Bft) NW 318 0 min 153 W/m 11,9 C 14,4 C 20,9 km/h (4 Bft)
11.06.2018 08:48 16,6 C 74 % 1012,1 hPa 0,0 l/m 10,0 km/h (2 Bft) N 360 0 min 151 W/m 11,9 C 14,9 C 17,7 km/h (3 Bft)
11.06.2018 08:51 16,6 C 75 % 1012,1 hPa 0,0 l/m 8,3 km/h (2 Bft) N 355 0 min 153 W/m 12,1 C 15,6 C 17,7 km/h (3 Bft)
11.06.2018 08:54 16,6 C 75 % 1012,2 hPa 0,0 l/m 7,1 km/h (2 Bft) NW 308 0 min 125 W/m 12,1 C 16,2 C 16,1 km/h (3 Bft)
11.06.2018 08:57 16,6 C 75 % 1012,2 hPa 0,0 l/m 6,0 km/h (2 Bft) W-NW 293 0 min 128 W/m 12,1 C 16,6 C 11,3 km/h (2 Bft)
11.06.2018 09:00 16,7 C 76 % 1012,2 hPa 0,0 l/m 7,4 km/h (2 Bft) N 355 0 min 193 W/m 12,4 C 16,2 C 17,7 km/h (3 Bft)
11.06.2018 09:03 16,7 C 76 % 1012,2 hPa 0,0 l/m 11,6 km/h (2 Bft) NW 319 0 min 155 W/m 12,4 C 14,4 C 19,3 km/h (3 Bft)
11.06.2018 09:06 16,7 C 76 % 1012,3 hPa 0,0 l/m 8,2 km/h (2 Bft) NW 305 0 min 149 W/m 12,4 C 15,8 C 17,7 km/h (3 Bft)
11.06.2018 09:09 16,7 C 76 % 1012,3 hPa 0,0 l/m 10,0 km/h (2 Bft) W-NW 286 0 min 206 W/m 12,4 C 15,0 C 17,7 km/h (3 Bft)
11.06.2018 09:12 16,7 C 76 % 1012,2 hPa 0,0 l/m 8,9 km/h (2 Bft) NW 319 0 min 204 W/m 12,4 C 15,5 C 20,9 km/h (4 Bft)
11.06.2018 09:15 16,7 C 75 % 1012,3 hPa 0,0 l/m 14,6 km/h (3 Bft) NW 325 0 min 195 W/m 12,2 C 13,4 C 20,9 km/h (4 Bft)
11.06.2018 09:18 16,7 C 76 % 1012,3 hPa 0,0 l/m 10,2 km/h (2 Bft) NW 310 0 min 141 W/m 12,4 C 14,9 C 17,7 km/h (3 Bft)
11.06.2018 09:21 16,6 C 75 % 1012,3 hPa 0,0 l/m 8,3 km/h (2 Bft) NW 313 0 min 144 W/m 12,1 C 15,6 C 19,3 km/h (3 Bft)
11.06.2018 09:24 16,6 C 75 % 1012,4 hPa 0,0 l/m 9,8 km/h (2 Bft) W-NW 284 0 min 149 W/m 12,1 C 15,0 C 20,9 km/h (4 Bft)
11.06.2018 09:27 16,5 C 75 % 1012,4 hPa 0,0 l/m 9,3 km/h (2 Bft) N-NW 329 0 min 171 W/m 12,1 C 15,1 C 16,1 km/h (3 Bft)
11.06.2018 09:30 16,5 C 75 % 1012,4 hPa 0,0 l/m 10,3 km/h (2 Bft) NW 304 0 min 185 W/m 12,1 C 14,7 C 17,7 km/h (3 Bft)
11.06.2018 09:33 16,5 C 74 % 1012,5 hPa 0,0 l/m 9,5 km/h (2 Bft) N-NW 329 0 min 202 W/m 11,8 C 15,0 C 19,3 km/h (3 Bft)
11.06.2018 09:36 16,6 C 74 % 1012,5 hPa 0,0 l/m 8,0 km/h (2 Bft) N 360 0 min 176 W/m 11,9 C 15,8 C 16,1 km/h (3 Bft)
11.06.2018 09:39 16,5 C 74 % 1012,5 hPa 0,0 l/m 7,6 km/h (2 Bft) NW 316 0 min 165 W/m 11,8 C 15,9 C 14,5 km/h (3 Bft)
11.06.2018 09:42 16,5 C 75 % 1012,6 hPa 0,0 l/m 6,6 km/h (2 Bft) NW 316 0 min 171 W/m 12,1 C 16,4 C 14,5 km/h (3 Bft)
11.06.2018 09:45 16,5 C 75 % 1012,6 hPa 0,0 l/m 4,2 km/h (1 Bft) W 271 0 min 176 W/m 12,1 C 16,5 C 12,9 km/h (3 Bft)
11.06.2018 09:48 16,5 C 75 % 1012,5 hPa 0,0 l/m 4,4 km/h (1 Bft) W 272 0 min 172 W/m 12,1 C 16,5 C 12,9 km/h (3 Bft)
11.06.2018 09:51 16,5 C 75 % 1012,5 hPa 0,0 l/m 5,8 km/h (2 Bft) NW 318 0 min 127 W/m 12,1 C 16,5 C 11,3 km/h (2 Bft)
11.06.2018 09:54 16,5 C 75 % 1012,5 hPa 0,0 l/m 5,4 km/h (2 Bft) NW 321 0 min 111 W/m 12,1 C 16,5 C 11,3 km/h (2 Bft)
11.06.2018 09:57 16,6 C 76 % 1012,6 hPa 0,0 l/m 7,3 km/h (2 Bft) W 263 0 min 151 W/m 12,3 C 16,1 C 14,5 km/h (3 Bft)
11.06.2018 10:00 16,5 C 76 % 1012,6 hPa 0,0 l/m 9,9 km/h (2 Bft) NW 321 0 min 151 W/m 12,3 C 14,8 C 17,7 km/h (3 Bft)
11.06.2018 10:03 16,4 C 77 % 1012,6 hPa 0,0 l/m 9,1 km/h (2 Bft) NW 309 0 min 192 W/m 12,4 C 15,1 C 17,7 km/h (3 Bft)
11.06.2018 10:06 16,5 C 77 % 1012,6 hPa 0,0 l/m 7,0 km/h (2 Bft) N-NW 333 0 min 221 W/m 12,5 C 16,2 C 19,3 km/h (3 Bft)
11.06.2018 10:09 16,6 C 76 % 1012,6 hPa 0,0 l/m 9,8 km/h (2 Bft) N-NW 328 0 min 213 W/m 12,3 C 15,0 C 19,3 km/h (3 Bft)
11.06.2018 10:12 16,7 C 77 % 1012,6 hPa 0,0 l/m 6,1 km/h (2 Bft) W 276 0 min 257 W/m 12,6 C 16,7 C 14,5 km/h (3 Bft)
11.06.2018 10:15 16,8 C 76 % 1012,6 hPa 0,0 l/m 10,9 km/h (2 Bft) NW 326 0 min 258 W/m 12,5 C 14,8 C 22,5 km/h (4 Bft)
11.06.2018 10:18 16,8 C 76 % 1012,5 hPa 0,0 l/m 6,3 km/h (2 Bft) NW 315 0 min 227 W/m 12,5 C 16,8 C 12,9 km/h (3 Bft)
11.06.2018 10:21 16,9 C 76 % 1012,4 hPa 0,0 l/m 8,0 km/h (2 Bft) NW 326 0 min 167 W/m 12,6 C 16,1 C 19,3 km/h (3 Bft)
11.06.2018 10:24 16,8 C 77 % 1012,5 hPa 0,0 l/m 8,0 km/h (2 Bft) W 271 0 min 179 W/m 12,7 C 16,0 C 19,3 km/h (3 Bft)
11.06.2018 10:27 16,7 C 77 % 1012,4 hPa 0,0 l/m 7,5 km/h (2 Bft) N-NW 332 0 min 250 W/m 12,6 C 16,1 C 19,3 km/h (3 Bft)
11.06.2018 10:30 16,6 C 76 % 1012,4 hPa 0,0 l/m 7,4 km/h (2 Bft) NW 315 0 min 246 W/m 12,3 C 16,1 C 19,3 km/h (3 Bft)
11.06.2018 10:33 16,7 C 75 % 1012,5 hPa 0,0 l/m 6,7 km/h (2 Bft) W-NW 302 0 min 260 W/m 12,2 C 16,6 C 14,5 km/h (3 Bft)
11.06.2018 10:36 16,7 C 75 % 1012,6 hPa 0,0 l/m 6,1 km/h (2 Bft) SW 228 0 min 283 W/m 12,2 C 16,7 C 17,7 km/h (3 Bft)
11.06.2018 10:39 16,8 C 75 % 1012,6 hPa 0,0 l/m 7,2 km/h (2 Bft) W-NW 286 0 min 295 W/m 12,3 C 16,4 C 16,1 km/h (3 Bft)
11.06.2018 10:42 16,9 C 74 % 1012,6 hPa 0,0 l/m 7,3 km/h (2 Bft) N 355 3 min 404 W/m 12,2 C 16,4 C 17,7 km/h (3 Bft)
11.06.2018 10:45 17,1 C 74 % 1012,6 hPa 0,0 l/m 8,6 km/h (2 Bft) W-SW 250 0 min 383 W/m 12,4 C 16,0 C 17,7 km/h (3 Bft)
11.06.2018 10:48 17,2 C 73 % 1012,6 hPa 0,0 l/m 6,7 km/h (2 Bft) NW 307 3 min 406 W/m 12,3 C 17,1 C 14,5 km/h (3 Bft)
11.06.2018 10:51 17,3 C 72 % 1012,6 hPa 0,0 l/m 6,5 km/h (2 Bft) W-NW 284 0 min 329 W/m 12,2 C 17,3 C 16,1 km/h (3 Bft)
11.06.2018 10:54 17,3 C 72 % 1012,5 hPa 0,0 l/m 7,4 km/h (2 Bft) W-NW 293 0 min 299 W/m 12,2 C 16,8 C 14,5 km/h (3 Bft)
11.06.2018 10:57 17,2 C 72 % 1012,6 hPa 0,0 l/m 6,9 km/h (2 Bft) W 260 0 min 243 W/m 12,1 C 17,0 C 16,1 km/h (3 Bft)
11.06.2018 11:00 17,1 C 72 % 1012,6 hPa 0,0 l/m 10,2 km/h (2 Bft) W 277 0 min 258 W/m 12,0 C 15,4 C 17,7 km/h (3 Bft)
11.06.2018 11:03 17,0 C 73 % 1012,5 hPa 0,0 l/m 7,3 km/h (2 Bft) W 274 0 min 279 W/m 12,1 C 16,5 C 16,1 km/h (3 Bft)
11.06.2018 11:06 17,0 C 74 % 1012,5 hPa 0,0 l/m 6,6 km/h (2 Bft) N-NW 333 0 min 211 W/m 12,3 C 16,9 C 14,5 km/h (3 Bft)
11.06.2018 11:09 16,9 C 74 % 1012,6 hPa 0,0 l/m 7,8 km/h (2 Bft) W-NW 283 0 min 234 W/m 12,2 C 16,2 C 19,3 km/h (3 Bft)
11.06.2018 11:12 16,9 C 75 % 1012,6 hPa 0,0 l/m 8,3 km/h (2 Bft) W-NW 292 0 min 271 W/m 12,4 C 16,0 C 17,7 km/h (3 Bft)
11.06.2018 11:15 16,9 C 75 % 1012,5 hPa 0,0 l/m 7,5 km/h (2 Bft) W-SW 244 0 min 301 W/m 12,4 C 16,3 C 16,1 km/h (3 Bft)
11.06.2018 11:18 16,9 C 77 % 1012,6 hPa 0,0 l/m 10,6 km/h (2 Bft) W-NW 292 0 min 396 W/m 12,8 C 15,0 C 17,7 km/h (3 Bft)
11.06.2018 11:21 17,0 C 77 % 1012,6 hPa 0,0 l/m 8,3 km/h (2 Bft) W 280 0 min 279 W/m 12,9 C 16,1 C 16,1 km/h (3 Bft)
11.06.2018 11:24 16,9 C 76 % 1012,7 hPa 0,0 l/m 9,1 km/h (2 Bft) W 281 0 min 257 W/m 12,6 C 15,6 C 16,1 km/h (3 Bft)
11.06.2018 11:27 16,9 C 76 % 1012,7 hPa 0,0 l/m 11,3 km/h (2 Bft) W-SW 250 0 min 304 W/m 12,6 C 14,7 C 20,9 km/h (4 Bft)
11.06.2018 11:30 16,8 C 76 % 1012,7 hPa 0,0 l/m 9,4 km/h (2 Bft) W 269 0 min 334 W/m 12,5 C 15,4 C 17,7 km/h (3 Bft)
11.06.2018 11:33 16,9 C 77 % 1012,7 hPa 0,0 l/m 6,8 km/h (2 Bft) W 274 3 min 436 W/m 12,8 C 16,7 C 16,1 km/h (3 Bft)
11.06.2018 11:36 17,4 C 75 % 1012,7 hPa 0,0 l/m 6,2 km/h (2 Bft) W-NW 282 3 min 464 W/m 12,9 C 17,4 C 12,9 km/h (3 Bft)
11.06.2018 11:39 17,5 C 75 % 1012,8 hPa 0,0 l/m 8,9 km/h (2 Bft) W 271 0 min 387 W/m 13,0 C 16,3 C 20,9 km/h (4 Bft)
11.06.2018 11:42 17,7 C 75 % 1012,8 hPa 0,0 l/m 9,3 km/h (2 Bft) W-SW 242 0 min 431 W/m 13,2 C 16,4 C 16,1 km/h (3 Bft)
11.06.2018 11:45 17,8 C 74 % 1012,8 hPa 0,0 l/m 9,6 km/h (2 Bft) W 271 0 min 267 W/m 13,1 C 16,4 C 19,3 km/h (3 Bft)
11.06.2018 11:48 17,4 C 73 % 1012,8 hPa 0,0 l/m 9,5 km/h (2 Bft) NW 306 0 min 236 W/m 12,5 C 16,0 C 17,7 km/h (3 Bft)
11.06.2018 11:51 17,2 C 76 % 1012,7 hPa 0,0 l/m 7,4 km/h (2 Bft) NW 326 0 min 320 W/m 12,9 C 16,7 C 17,7 km/h (3 Bft)
11.06.2018 11:54 17,2 C 75 % 1012,7 hPa 0,0 l/m 8,0 km/h (2 Bft) W-NW 300 0 min 374 W/m 12,7 C 16,4 C 17,7 km/h (3 Bft)
11.06.2018 11:57 17,4 C 75 % 1012,6 hPa 0,0 l/m 6,4 km/h (2 Bft) W 264 0 min 374 W/m 12,9 C 17,4 C 14,5 km/h (3 Bft)
11.06.2018 12:00 17,8 C 73 % 1012,5 hPa 0,0 l/m 9,2 km/h (2 Bft) N-NW 327 0 min 374 W/m 12,9 C 16,5 C 24,1 km/h (4 Bft)
11.06.2018 12:03 18,1 C 71 % 1012,6 hPa 0,0 l/m 8,5 km/h (2 Bft) NW 307 0 min 420 W/m 12,8 C 17,1 C 16,1 km/h (3 Bft)
11.06.2018 12:06 18,0 C 71 % 1012,6 hPa 0,0 l/m 6,3 km/h (2 Bft) N-NW 331 0 min 420 W/m 12,7 C 18,0 C 14,5 km/h (3 Bft)
11.06.2018 12:09 18,4 C 70 % 1012,7 hPa 0,0 l/m 8,4 km/h (2 Bft) W 280 0 min 420 W/m 12,8 C 17,5 C 17,7 km/h (3 Bft)
11.06.2018 12:12 18,4 C 70 % 1012,7 hPa 0,0 l/m 8,9 km/h (2 Bft) W 281 3 min 714 W/m 12,8 C 17,3 C 17,7 km/h (3 Bft)
11.06.2018 12:15 18,6 C 70 % 1012,6 hPa 0,0 l/m 6,9 km/h (2 Bft) W 262 3 min 631 W/m 13,0 C 18,4 C 16,1 km/h (3 Bft)
11.06.2018 12:18 18,6 C 70 % 1012,8 hPa 0,0 l/m 8,0 km/h (2 Bft) N-NW 330 0 min 390 W/m 13,0 C 17,9 C 17,7 km/h (3 Bft)
11.06.2018 12:21 18,1 C 71 % 1012,8 hPa 0,0 l/m 10,2 km/h (2 Bft) W-SW 253 0 min 352 W/m 12,8 C 16,5 C 17,7 km/h (3 Bft)
11.06.2018 12:24 17,9 C 72 % 1012,8 hPa 0,0 l/m 10,6 km/h (2 Bft) W-SW 252 0 min 362 W/m 12,8 C 16,1 C 22,5 km/h (4 Bft)
11.06.2018 12:27 17,9 C 74 % 1012,9 hPa 0,0 l/m 10,9 km/h (2 Bft) W-NW 285 0 min 387 W/m 13,2 C 16,0 C 17,7 km/h (3 Bft)
11.06.2018 12:30 17,7 C 73 % 1012,9 hPa 0,0 l/m 11,4 km/h (2 Bft) W 277 0 min 390 W/m 12,8 C 15,6 C 17,7 km/h (3 Bft)
11.06.2018 12:33 17,7 C 75 % 1012,9 hPa 0,0 l/m 10,1 km/h (2 Bft) W 262 3 min 531 W/m 13,2 C 16,1 C 22,5 km/h (4 Bft)
11.06.2018 12:36 18,1 C 75 % 1012,8 hPa 0,0 l/m 12,0 km/h (2 Bft) W-NW 292 3 min 522 W/m 13,6 C 15,8 C 20,9 km/h (4 Bft)
11.06.2018 12:39 18,2 C 73 % 1012,9 hPa 0,0 l/m 11,0 km/h (2 Bft) SW 219 3 min 578 W/m 13,3 C 16,3 C 20,9 km/h (4 Bft)
11.06.2018 12:42 18,0 C 73 % 1013,0 hPa 0,0 l/m 10,1 km/h (2 Bft) W-SW 257 0 min 399 W/m 13,1 C 16,4 C 25,7 km/h (4 Bft)
11.06.2018 12:45 17,8 C 75 % 1012,9 hPa 0,0 l/m 7,7 km/h (2 Bft) W-SW 246 0 min 417 W/m 13,3 C 17,2 C 14,5 km/h (3 Bft)
11.06.2018 12:48 17,8 C 73 % 1012,9 hPa 0,0 l/m 11,9 km/h (2 Bft) W 263 3 min 487 W/m 12,9 C 15,5 C 22,5 km/h (4 Bft)
11.06.2018 12:51 17,9 C 73 % 1013,0 hPa 0,0 l/m 11,2 km/h (2 Bft) N-NW 332 0 min 427 W/m 13,0 C 15,9 C 20,9 km/h (4 Bft)
11.06.2018 12:54 17,9 C 72 % 1013,1 hPa 0,0 l/m 9,9 km/h (2 Bft) SW 231 0 min 424 W/m 12,8 C 16,4 C 17,7 km/h (3 Bft)
11.06.2018 12:57 17,8 C 73 % 1013,1 hPa 0,0 l/m 8,6 km/h (2 Bft) S-SW 213 0 min 399 W/m 12,9 C 16,8 C 16,1 km/h (3 Bft)
11.06.2018 13:00 17,9 C 73 % 1013,1 hPa 0,0 l/m 6,7 km/h (2 Bft) W 280 3 min 480 W/m 13,0 C 17,8 C 14,5 km/h (3 Bft)
11.06.2018 13:03 17,9 C 71 % 1013,1 hPa 0,0 l/m 11,0 km/h (2 Bft) W 267 0 min 439 W/m 12,6 C 16,0 C 22,5 km/h (4 Bft)
11.06.2018 13:06 18,0 C 72 % 1013,1 hPa 0,0 l/m 9,0 km/h (2 Bft) W 267 0 min 424 W/m 12,9 C 16,8 C 19,3 km/h (3 Bft)
11.06.2018 13:09 17,8 C 71 % 1013,0 hPa 0,0 l/m 7,7 km/h (2 Bft) W 279 0 min 415 W/m 12,5 C 17,2 C 14,5 km/h (3 Bft)
11.06.2018 13:12 17,8 C 71 % 1013,1 hPa 0,0 l/m 10,1 km/h (2 Bft) W 280 0 min 404 W/m 12,5 C 16,2 C 17,7 km/h (3 Bft)
11.06.2018 13:15 17,8 C 70 % 1013,2 hPa 0,0 l/m 8,6 km/h (2 Bft) SW 231 0 min 445 W/m 12,3 C 16,8 C 16,1 km/h (3 Bft)
11.06.2018 13:18 17,8 C 69 % 1013,1 hPa 0,0 l/m 9,8 km/h (2 Bft) W-SW 255 3 min 503 W/m 12,0 C 16,3 C 16,1 km/h (3 Bft)
11.06.2018 13:21 18,1 C 69 % 1013,2 hPa 0,0 l/m 9,2 km/h (2 Bft) W-SW 257 3 min 512 W/m 12,3 C 16,9 C 20,9 km/h (4 Bft)
11.06.2018 13:24 18,1 C 69 % 1013,1 hPa 0,0 l/m 11,0 km/h (2 Bft) SW 223 3 min 512 W/m 12,3 C 16,2 C 22,5 km/h (4 Bft)
11.06.2018 13:27 18,1 C 70 % 1013,1 hPa 0,0 l/m 11,0 km/h (2 Bft) W-SW 249 3 min 490 W/m 12,5 C 16,2 C 16,1 km/h (3 Bft)
11.06.2018 13:30 18,1 C 70 % 1013,0 hPa 0,0 l/m 10,5 km/h (2 Bft) SW 227 3 min 594 W/m 12,5 C 16,4 C 19,3 km/h (3 Bft)
11.06.2018 13:33 18,1 C 70 % 1013,0 hPa 0,0 l/m 10,9 km/h (2 Bft) W 259 0 min 452 W/m 12,5 C 16,2 C 19,3 km/h (3 Bft)
11.06.2018 13:36 18,2 C 72 % 1013,1 hPa 0,0 l/m 12,3 km/h (2 Bft) W-NW 290 0 min 452 W/m 13,1 C 15,9 C 24,1 km/h (4 Bft)
11.06.2018 13:39 18,1 C 70 % 1013,0 hPa 0,0 l/m 11,1 km/h (2 Bft) W-SW 254 0 min 439 W/m 12,5 C 16,1 C 20,9 km/h (4 Bft)
11.06.2018 13:42 17,9 C 72 % 1013,0 hPa 0,0 l/m 10,1 km/h (2 Bft) W-SW 256 0 min 457 W/m 12,8 C 16,3 C 20,9 km/h (4 Bft)
11.06.2018 13:45 18,0 C 73 % 1012,9 hPa 0,0 l/m 10,6 km/h (2 Bft) W-NW 284 3 min 466 W/m 13,1 C 16,2 C 17,7 km/h (3 Bft)
11.06.2018 13:48 18,2 C 72 % 1013,0 hPa 0,0 l/m 8,3 km/h (2 Bft) W 281 3 min 490 W/m 13,1 C 17,3 C 14,5 km/h (3 Bft)
11.06.2018 13:51 18,2 C 73 % 1012,9 hPa 0,0 l/m 10,8 km/h (2 Bft) W-NW 296 0 min 443 W/m 13,3 C 16,4 C 22,5 km/h (4 Bft)
11.06.2018 13:54 18,0 C 73 % 1012,9 hPa 0,0 l/m 12,6 km/h (3 Bft) W-SW 242 0 min 443 W/m 13,1 C 15,5 C 20,9 km/h (4 Bft)
11.06.2018 13:57 18,0 C 74 % 1012,8 hPa 0,0 l/m 11,8 km/h (2 Bft) W 273 3 min 480 W/m 13,3 C 15,8 C 24,1 km/h (4 Bft)
11.06.2018 14:00 17,9 C 74 % 1012,9 hPa 0,0 l/m 11,4 km/h (2 Bft) NW 311 3 min 543 W/m 13,2 C 15,8 C 22,5 km/h (4 Bft)
11.06.2018 14:03 17,9 C 74 % 1012,8 hPa 0,0 l/m 9,9 km/h (2 Bft) W-SW 248 0 min 438 W/m 13,2 C 16,4 C 17,7 km/h (3 Bft)
11.06.2018 14:06 18,0 C 71 % 1012,9 hPa 0,0 l/m 10,2 km/h (2 Bft) SW 231 0 min 459 W/m 12,7 C 16,4 C 19,3 km/h (3 Bft)
11.06.2018 14:09 18,1 C 72 % 1012,8 hPa 0,0 l/m 10,7 km/h (2 Bft) W-NW 298 3 min 526 W/m 13,0 C 16,3 C 19,3 km/h (3 Bft)
11.06.2018 14:12 18,0 C 69 % 1012,8 hPa 0,0 l/m 10,1 km/h (2 Bft) W 275 0 min 418 W/m 12,2 C 16,4 C 19,3 km/h (3 Bft)
11.06.2018 14:15 18,0 C 71 % 1012,8 hPa 0,0 l/m 8,8 km/h (2 Bft) W 276 3 min 515 W/m 12,7 C 16,9 C 17,7 km/h (3 Bft)
11.06.2018 14:18 18,1 C 70 % 1012,7 hPa 0,0 l/m 10,6 km/h (2 Bft) NW 326 3 min 566 W/m 12,5 C 16,3 C 17,7 km/h (3 Bft)
11.06.2018 14:21 18,4 C 71 % 1012,7 hPa 0,0 l/m 10,7 km/h (2 Bft) W 269 3 min 582 W/m 13,0 C 16,6 C 20,9 km/h (4 Bft)
11.06.2018 14:24 18,5 C 69 % 1012,7 hPa 0,0 l/m 9,8 km/h (2 Bft) S-SW 206 0 min 452 W/m 12,7 C 17,1 C 20,9 km/h (4 Bft)
11.06.2018 14:27 18,6 C 68 % 1012,6 hPa 0,0 l/m 12,0 km/h (2 Bft) W 279 0 min 381 W/m 12,6 C 16,4 C 16,1 km/h (3 Bft)
11.06.2018 14:30 18,4 C 68 % 1012,6 hPa 0,0 l/m 11,8 km/h (2 Bft) W 265 0 min 397 W/m 12,4 C 16,3 C 16,1 km/h (3 Bft)
11.06.2018 14:33 18,4 C 68 % 1012,7 hPa 0,0 l/m 12,3 km/h (2 Bft) W-NW 287 0 min 390 W/m 12,4 C 16,1 C 19,3 km/h (3 Bft)
11.06.2018 14:36 18,3 C 69 % 1012,7 hPa 0,0 l/m 9,5 km/h (2 Bft) W 268 0 min 371 W/m 12,5 C 17,0 C 19,3 km/h (3 Bft)
11.06.2018 14:39 18,3 C 69 % 1012,8 hPa 0,0 l/m 8,6 km/h (2 Bft) W 271 0 min 355 W/m 12,5 C 17,3 C 20,9 km/h (4 Bft)
11.06.2018 14:42 18,1 C 69 % 1012,8 hPa 0,0 l/m 14,0 km/h (3 Bft) W-SW 245 0 min 373 W/m 12,3 C 15,2 C 22,5 km/h (4 Bft)
11.06.2018 14:45 18,1 C 71 % 1012,8 hPa 0,0 l/m 7,3 km/h (2 Bft) W 270 0 min 274 W/m 12,8 C 17,7 C 20,9 km/h (4 Bft)
11.06.2018 14:48 18,0 C 71 % 1012,7 hPa 0,0 l/m 10,3 km/h (2 Bft) W 266 0 min 338 W/m 12,7 C 16,3 C 19,3 km/h (3 Bft)
11.06.2018 14:51 17,9 C 72 % 1012,8 hPa 0,0 l/m 12,3 km/h (2 Bft) W 261 0 min 348 W/m 12,8 C 15,5 C 20,9 km/h (4 Bft)
11.06.2018 14:54 17,8 C 73 % 1012,8 hPa 0,0 l/m 12,6 km/h (3 Bft) W-NW 290 0 min 341 W/m 12,9 C 15,3 C 24,1 km/h (4 Bft)
11.06.2018 14:57 17,7 C 73 % 1012,7 hPa 0,0 l/m 12,7 km/h (3 Bft) W-SW 238 0 min 374 W/m 12,8 C 15,2 C 20,9 km/h (4 Bft)
11.06.2018 15:00 17,7 C 73 % 1012,6 hPa 0,0 l/m 6,1 km/h (2 Bft) W-NW 283 0 min 367 W/m 12,8 C 17,7 C 16,1 km/h (3 Bft)
11.06.2018 15:03 17,9 C 74 % 1012,6 hPa 0,0 l/m 10,9 km/h (2 Bft) W 269 0 min 338 W/m 13,2 C 16,0 C 19,3 km/h (3 Bft)
11.06.2018 15:06 17,9 C 73 % 1012,6 hPa 0,0 l/m 11,2 km/h (2 Bft) W-NW 294 0 min 352 W/m 13,0 C 15,9 C 17,7 km/h (3 Bft)
11.06.2018 15:09 17,9 C 74 % 1012,5 hPa 0,0 l/m 8,4 km/h (2 Bft) W-NW 290 0 min 411 W/m 13,2 C 17,0 C 20,9 km/h (4 Bft)
11.06.2018 15:12 17,9 C 72 % 1012,5 hPa 0,0 l/m 11,5 km/h (2 Bft) W-NW 298 0 min 318 W/m 12,8 C 15,8 C 22,5 km/h (4 Bft)
11.06.2018 15:15 17,7 C 72 % 1012,5 hPa 0,0 l/m 14,0 km/h (3 Bft) W 265 0 min 352 W/m 12,6 C 14,8 C 22,5 km/h (4 Bft)
11.06.2018 15:18 17,7 C 73 % 1012,4 hPa 0,0 l/m 10,9 km/h (2 Bft) W-NW 296 3 min 452 W/m 12,8 C 15,8 C 17,7 km/h (3 Bft)
11.06.2018 15:21 17,9 C 72 % 1012,3 hPa 0,0 l/m 9,8 km/h (2 Bft) NW 323 3 min 534 W/m 12,8 C 16,4 C 19,3 km/h (3 Bft)
11.06.2018 15:24 18,2 C 72 % 1012,3 hPa 0,0 l/m 8,5 km/h (2 Bft) W 273 3 min 455 W/m 13,1 C 17,2 C 16,1 km/h (3 Bft)
11.06.2018 15:27 18,4 C 72 % 1012,2 hPa 0,0 l/m 9,0 km/h (2 Bft) W 271 3 min 455 W/m 13,3 C 17,3 C 24,1 km/h (4 Bft)
11.06.2018 15:30 18,3 C 71 % 1012,2 hPa 0,0 l/m 6,8 km/h (2 Bft) W-NW 290 0 min 359 W/m 12,9 C 18,1 C 16,1 km/h (3 Bft)
11.06.2018 15:33 18,3 C 71 % 1012,2 hPa 0,0 l/m 9,0 km/h (2 Bft) W 265 3 min 425 W/m 12,9 C 17,1 C 16,1 km/h (3 Bft)
11.06.2018 15:36 18,4 C 71 % 1012,2 hPa 0,0 l/m 7,1 km/h (2 Bft) W-NW 284 3 min 422 W/m 13,0 C 18,1 C 14,5 km/h (3 Bft)
11.06.2018 15:39 18,3 C 71 % 1012,1 hPa 0,0 l/m 8,9 km/h (2 Bft) NW 322 0 min 334 W/m 12,9 C 17,2 C 16,1 km/h (3 Bft)
11.06.2018 15:42 18,3 C 71 % 1012,0 hPa 0,0 l/m 10,9 km/h (2 Bft) W-NW 294 0 min 343 W/m 12,9 C 16,4 C 22,5 km/h (4 Bft)
11.06.2018 15:45 18,3 C 70 % 1011,9 hPa 0,0 l/m 10,4 km/h (2 Bft) NW 326 0 min 316 W/m 12,7 C 16,6 C 19,3 km/h (3 Bft)
11.06.2018 15:48 18,7 C 71 % 1011,9 hPa 0,0 l/m 4,9 km/h (1 Bft) NW 325 3 min 833 W/m 13,3 C 18,7 C 14,5 km/h (3 Bft)
11.06.2018 15:51 18,7 C 68 % 1011,9 hPa 0,0 l/m 10,5 km/h (2 Bft) NW 309 0 min 287 W/m 12,7 C 17,0 C 19,3 km/h (3 Bft)
11.06.2018 15:54 18,5 C 69 % 1011,9 hPa 0,0 l/m 8,4 km/h (2 Bft) W-NW 290 0 min 285 W/m 12,7 C 17,6 C 17,7 km/h (3 Bft)
11.06.2018 15:57 18,4 C 71 % 1011,9 hPa 0,0 l/m 9,1 km/h (2 Bft) NW 321 0 min 285 W/m 13,0 C 17,2 C 17,7 km/h (3 Bft)
11.06.2018 16:00 18,4 C 70 % 1011,8 hPa 0,0 l/m 10,2 km/h (2 Bft) W 271 0 min 311 W/m 12,8 C 16,8 C 19,3 km/h (3 Bft)
11.06.2018 16:03 18,3 C 71 % 1011,8 hPa 0,0 l/m 8,5 km/h (2 Bft) N-NW 331 0 min 352 W/m 12,9 C 17,4 C 19,3 km/h (3 Bft)
11.06.2018 16:06 18,1 C 70 % 1011,8 hPa 0,0 l/m 12,1 km/h (2 Bft) NW 319 0 min 165 W/m 12,5 C 15,8 C 22,5 km/h (4 Bft)
11.06.2018 16:09 17,8 C 70 % 1011,9 hPa 0,0 l/m 11,3 km/h (2 Bft) NW 314 0 min 202 W/m 12,3 C 15,7 C 20,9 km/h (4 Bft)
11.06.2018 16:12 17,8 C 71 % 1011,8 hPa 0,0 l/m 8,4 km/h (2 Bft) N-NW 330 0 min 202 W/m 12,5 C 16,9 C 19,3 km/h (3 Bft)
11.06.2018 16:15 18,4 C 70 % 1011,8 hPa 0,0 l/m 7,2 km/h (2 Bft) N-NW 333 3 min 830 W/m 12,8 C 18,0 C 19,3 km/h (3 Bft)
11.06.2018 16:18 18,7 C 69 % 1011,8 hPa 0,0 l/m 7,7 km/h (2 Bft) N-NW 333 3 min 860 W/m 12,9 C 18,1 C 19,3 km/h (3 Bft)
11.06.2018 16:21 18,9 C 69 % 1011,9 hPa 0,0 l/m 9,8 km/h (2 Bft) W 275 3 min 860 W/m 13,1 C 17,5 C 16,1 km/h (3 Bft)
11.06.2018 16:24 18,8 C 67 % 1011,9 hPa 0,0 l/m 10,0 km/h (2 Bft) NW 319 0 min 308 W/m 12,5 C 17,3 C 17,7 km/h (3 Bft)
11.06.2018 16:27 18,5 C 69 % 1011,8 hPa 0,0 l/m 9,6 km/h (2 Bft) W 272 0 min 330 W/m 12,7 C 17,1 C 19,3 km/h (3 Bft)
11.06.2018 16:30 18,4 C 70 % 1011,8 hPa 0,0 l/m 10,6 km/h (2 Bft) NW 305 0 min 302 W/m 12,8 C 16,7 C 20,9 km/h (4 Bft)
11.06.2018 16:33 18,2 C 70 % 1011,7 hPa 0,0 l/m 10,5 km/h (2 Bft) W 271 0 min 325 W/m 12,6 C 16,5 C 17,7 km/h (3 Bft)
11.06.2018 16:36 18,2 C 71 % 1011,6 hPa 0,0 l/m 12,0 km/h (2 Bft) NW 313 0 min 366 W/m 12,9 C 16,0 C 19,3 km/h (3 Bft)
11.06.2018 16:39 18,4 C 70 % 1011,6 hPa 0,0 l/m 10,0 km/h (2 Bft) W-SW 258 3 min 366 W/m 12,8 C 16,9 C 20,9 km/h (4 Bft)
11.06.2018 16:42 18,4 C 70 % 1011,5 hPa 0,0 l/m 6,7 km/h (2 Bft) N-NW 345 0 min 283 W/m 12,8 C 18,3 C 16,1 km/h (3 Bft)
11.06.2018 16:45 18,3 C 71 % 1011,5 hPa 0,0 l/m 8,0 km/h (2 Bft) W-NW 295 0 min 281 W/m 12,9 C 17,6 C 16,1 km/h (3 Bft)
11.06.2018 16:48 18,1 C 72 % 1011,4 hPa 0,0 l/m 9,2 km/h (2 Bft) W 273 0 min 311 W/m 13,0 C 16,9 C 16,1 km/h (3 Bft)
11.06.2018 16:51 17,8 C 73 % 1011,5 hPa 0,0 l/m 9,4 km/h (2 Bft) NW 317 0 min 272 W/m 12,9 C 16,4 C 17,7 km/h (3 Bft)
11.06.2018 16:54 17,9 C 72 % 1011,5 hPa 0,0 l/m 11,8 km/h (2 Bft) W-NW 286 0 min 306 W/m 12,8 C 15,7 C 20,9 km/h (4 Bft)
11.06.2018 16:57 17,8 C 72 % 1011,5 hPa 0,0 l/m 12,1 km/h (2 Bft) N-NW 336 0 min 288 W/m 12,7 C 15,5 C 24,1 km/h (4 Bft)
11.06.2018 17:00 17,7 C 71 % 1011,5 hPa 0,0 l/m 8,8 km/h (2 Bft) W-NW 299 0 min 199 W/m 12,4 C 16,6 C 19,3 km/h (3 Bft)
11.06.2018 17:03 17,8 C 72 % 1011,5 hPa 0,0 l/m 10,4 km/h (2 Bft) NW 324 3 min 612 W/m 12,7 C 16,1 C 17,7 km/h (3 Bft)
11.06.2018 17:06 17,7 C 71 % 1011,5 hPa 0,0 l/m 11,7 km/h (2 Bft) N-NW 337 0 min 288 W/m 12,4 C 15,5 C 22,5 km/h (4 Bft)
11.06.2018 17:09 17,5 C 72 % 1011,5 hPa 0,0 l/m 8,2 km/h (2 Bft) NW 312 0 min 288 W/m 12,4 C 16,6 C 20,9 km/h (4 Bft)
11.06.2018 17:12 17,7 C 72 % 1011,5 hPa 0,0 l/m 9,4 km/h (2 Bft) W-NW 298 3 min 563 W/m 12,6 C 16,3 C 20,9 km/h (4 Bft)
11.06.2018 17:15 17,8 C 71 % 1011,4 hPa 0,0 l/m 13,7 km/h (3 Bft) W-SW 246 3 min 563 W/m 12,5 C 15,0 C 25,7 km/h (4 Bft)
11.06.2018 17:18 18,1 C 71 % 1011,5 hPa 0,0 l/m 15,5 km/h (3 Bft) NW 307 3 min 745 W/m 12,8 C 14,8 C 24,1 km/h (4 Bft)
11.06.2018 17:21 18,1 C 71 % 1011,4 hPa 0,0 l/m 9,6 km/h (2 Bft) N 351 0 min 306 W/m 12,8 C 16,7 C 16,1 km/h (3 Bft)
11.06.2018 17:24 18,3 C 69 % 1011,4 hPa 0,0 l/m 9,9 km/h (2 Bft) W-NW 299 0 min 244 W/m 12,5 C 16,8 C 20,9 km/h (4 Bft)
11.06.2018 17:27 18,1 C 70 % 1011,4 hPa 0,0 l/m 8,6 km/h (2 Bft) W 275 0 min 295 W/m 12,5 C 17,1 C 14,5 km/h (3 Bft)
11.06.2018 17:30 17,9 C 71 % 1011,4 hPa 0,0 l/m 6,8 km/h (2 Bft) NW 320 0 min 302 W/m 12,6 C 17,7 C 16,1 km/h (3 Bft)
11.06.2018 17:33 17,8 C 70 % 1011,4 hPa 0,0 l/m 12,6 km/h (3 Bft) N-NW 336 0 min 301 W/m 12,3 C 15,3 C 22,5 km/h (4 Bft)
11.06.2018 17:36 17,6 C 72 % 1011,4 hPa 0,0 l/m 10,5 km/h (2 Bft) W-NW 286 0 min 244 W/m 12,5 C 15,8 C 20,9 km/h (4 Bft)
11.06.2018 17:39 17,7 C 71 % 1011,3 hPa 0,0 l/m 11,6 km/h (2 Bft) N-NW 331 0 min 236 W/m 12,4 C 15,5 C 19,3 km/h (3 Bft)
11.06.2018 17:42 17,6 C 71 % 1011,3 hPa 0,0 l/m 10,8 km/h (2 Bft) W 269 3 min 424 W/m 12,3 C 15,7 C 17,7 km/h (3 Bft)
11.06.2018 17:45 17,7 C 72 % 1011,2 hPa 0,0 l/m 10,1 km/h (2 Bft) N-NW 329 0 min 193 W/m 12,6 C 16,1 C 20,9 km/h (4 Bft)
11.06.2018 17:48 17,5 C 71 % 1011,3 hPa 0,0 l/m 11,0 km/h (2 Bft) N-NW 337 0 min 253 W/m 12,2 C 15,5 C 16,1 km/h (3 Bft)
11.06.2018 17:54 17,5 C 72 % 1011,3 hPa 0,0 l/m 10,5 km/h (2 Bft) NW 319 6 min 290 W/m 12,4 C 15,7 C 20,9 km/h (4 Bft)
11.06.2018 17:57 17,7 C 71 % 1011,3 hPa 0,0 l/m 6,6 km/h (2 Bft) NW 315 0 min 190 W/m 12,4 C 17,6 C 14,5 km/h (3 Bft)
11.06.2018 18:00 17,6 C 70 % 1011,3 hPa 0,0 l/m 10,9 km/h (2 Bft) NW 304 0 min 214 W/m 12,1 C 15,7 C 17,7 km/h (3 Bft)
11.06.2018 18:03 17,6 C 71 % 1011,3 hPa 0,0 l/m 10,1 km/h (2 Bft) W-SW 257 3 min 292 W/m 12,3 C 16,0 C 17,7 km/h (3 Bft)
11.06.2018 18:06 17,5 C 71 % 1011,3 hPa 0,0 l/m 8,5 km/h (2 Bft) W-NW 283 0 min 223 W/m 12,2 C 16,5 C 17,7 km/h (3 Bft)
11.06.2018 18:09 17,4 C 72 % 1011,4 hPa 0,0 l/m 7,4 km/h (2 Bft) W-NW 290 0 min 178 W/m 12,3 C 16,9 C 16,1 km/h (3 Bft)
11.06.2018 18:12 17,3 C 73 % 1011,5 hPa 0,0 l/m 9,1 km/h (2 Bft) N-NO 13 0 min 179 W/m 12,4 C 16,0 C 24,1 km/h (4 Bft)
11.06.2018 18:15 17,2 C 73 % 1011,4 hPa 0,0 l/m 8,7 km/h (2 Bft) W 270 0 min 149 W/m 12,3 C 16,1 C 19,3 km/h (3 Bft)
11.06.2018 18:18 17,1 C 73 % 1011,5 hPa 0,0 l/m 6,8 km/h (2 Bft) W 275 0 min 146 W/m 12,2 C 16,9 C 14,5 km/h (3 Bft)
11.06.2018 18:21 17,1 C 73 % 1011,5 hPa 0,0 l/m 6,9 km/h (2 Bft) W 276 0 min 128 W/m 12,2 C 16,9 C 14,5 km/h (3 Bft)
11.06.2018 18:24 17,1 C 74 % 1011,5 hPa 0,0 l/m 5,4 km/h (2 Bft) W 277 0 min 123 W/m 12,4 C 17,1 C 12,9 km/h (3 Bft)
11.06.2018 18:27 17,1 C 74 % 1011,6 hPa 0,0 l/m 9,7 km/h (2 Bft) W 281 0 min 104 W/m 12,4 C 15,6 C 16,1 km/h (3 Bft)
11.06.2018 18:30 16,9 C 74 % 1011,5 hPa 0,0 l/m 8,9 km/h (2 Bft) W 269 0 min 102 W/m 12,2 C 15,7 C 19,3 km/h (3 Bft)
11.06.2018 18:33 16,8 C 75 % 1011,4 hPa 0,0 l/m 8,6 km/h (2 Bft) W 275 0 min 105 W/m 12,3 C 15,7 C 16,1 km/h (3 Bft)
11.06.2018 18:36 16,8 C 75 % 1011,4 hPa 0,0 l/m 6,6 km/h (2 Bft) N-NW 330 0 min 95 W/m 12,3 C 16,7 C 19,3 km/h (3 Bft)
11.06.2018 18:39 16,8 C 74 % 1011,4 hPa 0,0 l/m 7,9 km/h (2 Bft) N-NW 346 0 min 84 W/m 12,1 C 16,0 C 17,7 km/h (3 Bft)
11.06.2018 18:42 16,7 C 75 % 1011,4 hPa 0,0 l/m 8,5 km/h (2 Bft) W 272 0 min 84 W/m 12,2 C 15,6 C 19,3 km/h (3 Bft)
11.06.2018 18:45 16,7 C 75 % 1011,3 hPa 0,0 l/m 7,7 km/h (2 Bft) N-NW 339 0 min 90 W/m 12,2 C 16,0 C 19,3 km/h (3 Bft)
11.06.2018 18:48 16,7 C 75 % 1011,3 hPa 0,0 l/m 8,1 km/h (2 Bft) N 355 0 min 104 W/m 12,2 C 15,8 C 16,1 km/h (3 Bft)
11.06.2018 18:51 16,7 C 75 % 1011,3 hPa 0,0 l/m 6,2 km/h (2 Bft) N-NW 331 0 min 98 W/m 12,2 C 16,7 C 14,5 km/h (3 Bft)
11.06.2018 18:54 16,8 C 75 % 1011,3 hPa 0,0 l/m 10,8 km/h (2 Bft) N 5 0 min 111 W/m 12,3 C 14,8 C 19,3 km/h (3 Bft)
11.06.2018 18:57 16,7 C 75 % 1011,3 hPa 0,0 l/m 6,7 km/h (2 Bft) W-NW 295 0 min 91 W/m 12,2 C 16,6 C 16,1 km/h (3 Bft)
11.06.2018 19:00 16,6 C 75 % 1011,2 hPa 0,0 l/m 8,4 km/h (2 Bft) NW 315 0 min 100 W/m 12,1 C 15,6 C 19,3 km/h (3 Bft)
11.06.2018 19:03 16,6 C 75 % 1011,1 hPa 0,0 l/m 7,2 km/h (2 Bft) W-SW 238 0 min 76 W/m 12,1 C 16,2 C 16,1 km/h (3 Bft)
11.06.2018 19:06 16,7 C 75 % 1011,2 hPa 0,0 l/m 6,6 km/h (2 Bft) W 277 0 min 74 W/m 12,2 C 16,6 C 17,7 km/h (3 Bft)
11.06.2018 19:09 16,6 C 75 % 1011,2 hPa 0,0 l/m 7,2 km/h (2 Bft) W 281 0 min 67 W/m 12,1 C 16,2 C 14,5 km/h (3 Bft)
11.06.2018 19:12 16,7 C 76 % 1011,2 hPa 0,0 l/m 5,6 km/h (2 Bft) W-NW 303 0 min 76 W/m 12,4 C 16,7 C 16,1 km/h (3 Bft)
11.06.2018 19:15 16,6 C 75 % 1011,3 hPa 0,0 l/m 9,2 km/h (2 Bft) N-NW 343 0 min 107 W/m 12,1 C 15,2 C 17,7 km/h (3 Bft)
11.06.2018 19:18 16,6 C 75 % 1011,3 hPa 0,0 l/m 8,0 km/h (2 Bft) SW 236 0 min 102 W/m 12,1 C 15,8 C 19,3 km/h (3 Bft)
11.06.2018 19:21 16,5 C 74 % 1011,3 hPa 0,0 l/m 10,8 km/h (2 Bft) W-NW 293 0 min 107 W/m 11,8 C 14,5 C 16,1 km/h (3 Bft)
11.06.2018 19:24 16,4 C 75 % 1011,2 hPa 0,0 l/m 6,8 km/h (2 Bft) NW 311 0 min 135 W/m 12,0 C 16,2 C 12,9 km/h (3 Bft)
11.06.2018 19:27 16,6 C 75 % 1011,2 hPa 0,0 l/m 10,5 km/h (2 Bft) W-NW 296 0 min 76 W/m 12,1 C 14,7 C 20,9 km/h (4 Bft)
11.06.2018 19:30 16,5 C 74 % 1011,2 hPa 0,0 l/m 9,9 km/h (2 Bft) NW 309 0 min 62 W/m 11,8 C 14,8 C 19,3 km/h (3 Bft)
11.06.2018 19:33 16,4 C 74 % 1011,2 hPa 0,0 l/m 11,2 km/h (2 Bft) N-NW 338 0 min 79 W/m 11,8 C 14,2 C 19,3 km/h (3 Bft)
11.06.2018 19:36 16,3 C 75 % 1011,1 hPa 0,0 l/m 10,9 km/h (2 Bft) W-NW 291 0 min 113 W/m 11,9 C 14,2 C 19,3 km/h (3 Bft)
11.06.2018 19:39 16,3 C 75 % 1011,0 hPa 0,0 l/m 11,3 km/h (2 Bft) W-NW 294 0 min 81 W/m 11,9 C 14,0 C 19,3 km/h (3 Bft)
11.06.2018 19:42 16,3 C 75 % 1011,0 hPa 0,0 l/m 6,3 km/h (2 Bft) W-NW 294 0 min 72 W/m 11,9 C 16,3 C 20,9 km/h (4 Bft)
11.06.2018 19:45 16,4 C 75 % 1011,0 hPa 0,0 l/m 7,5 km/h (2 Bft) NW 311 0 min 60 W/m 12,0 C 15,8 C 17,7 km/h (3 Bft)
11.06.2018 19:48 16,4 C 75 % 1011,0 hPa 0,0 l/m 9,8 km/h (2 Bft) N-NW 335 0 min 53 W/m 12,0 C 14,7 C 20,9 km/h (4 Bft)
11.06.2018 19:51 16,4 C 76 % 1011,0 hPa 0,0 l/m 6,5 km/h (2 Bft) W 275 0 min 72 W/m 12,2 C 16,4 C 14,5 km/h (3 Bft)
11.06.2018 19:54 16,4 C 76 % 1011,0 hPa 0,0 l/m 7,9 km/h (2 Bft) W 262 0 min 58 W/m 12,2 C 15,6 C 16,1 km/h (3 Bft)
11.06.2018 19:57 16,3 C 76 % 1011,1 hPa 0,0 l/m 12,0 km/h (2 Bft) NW 325 0 min 32 W/m 12,1 C 13,8 C 22,5 km/h (4 Bft)
11.06.2018 20:00 16,2 C 76 % 1011,1 hPa 0,0 l/m 9,8 km/h (2 Bft) W 278 0 min 54 W/m 12,0 C 14,5 C 19,3 km/h (3 Bft)
11.06.2018 20:03 16,2 C 76 % 1011,0 hPa 0,0 l/m 8,3 km/h (2 Bft) NW 312 0 min 53 W/m 12,0 C 15,2 C 20,9 km/h (4 Bft)
11.06.2018 20:06 16,2 C 76 % 1011,1 hPa 0,0 l/m 9,8 km/h (2 Bft) W-NW 286 0 min 54 W/m 12,0 C 14,5 C 24,1 km/h (4 Bft)
11.06.2018 20:09 16,2 C 76 % 1011,1 hPa 0,0 l/m 7,2 km/h (2 Bft) W-NW 298 0 min 44 W/m 12,0 C 15,8 C 16,1 km/h (3 Bft)
11.06.2018 20:12 16,1 C 75 % 1011,1 hPa 0,0 l/m 7,9 km/h (2 Bft) N-NW 336 0 min 37 W/m 11,7 C 15,3 C 14,5 km/h (3 Bft)
11.06.2018 20:15 16,0 C 76 % 1011,1 hPa 0,0 l/m 7,1 km/h (2 Bft) W-NW 294 0 min 33 W/m 11,8 C 15,6 C 16,1 km/h (3 Bft)
11.06.2018 20:18 16,0 C 76 % 1011,0 hPa 0,0 l/m 9,8 km/h (2 Bft) NW 311 0 min 30 W/m 11,8 C 14,3 C 16,1 km/h (3 Bft)
11.06.2018 20:21 16,1 C 76 % 1011,0 hPa 0,0 l/m 10,1 km/h (2 Bft) W 262 0 min 33 W/m 11,9 C 14,3 C 20,9 km/h (4 Bft)
11.06.2018 20:24 16,0 C 76 % 1011,0 hPa 0,0 l/m 8,1 km/h (2 Bft) N-NW 338 0 min 30 W/m 11,8 C 15,1 C 14,5 km/h (3 Bft)
11.06.2018 20:27 16,1 C 76 % 1010,9 hPa 0,0 l/m 8,6 km/h (2 Bft) NW 319 0 min 21 W/m 11,9 C 15,0 C 14,5 km/h (3 Bft)
11.06.2018 20:30 16,1 C 76 % 1010,8 hPa 0,0 l/m 6,7 km/h (2 Bft) W-NW 302 0 min 21 W/m 11,9 C 16,0 C 12,9 km/h (3 Bft)
11.06.2018 20:33 16,1 C 78 % 1010,8 hPa 0,0 l/m 7,5 km/h (2 Bft) N-NW 329 0 min 26 W/m 12,3 C 15,5 C 16,1 km/h (3 Bft)
11.06.2018 20:36 16,1 C 78 % 1010,8 hPa 0,0 l/m 10,8 km/h (2 Bft) W-NW 283 0 min 26 W/m 12,3 C 14,0 C 19,3 km/h (3 Bft)
11.06.2018 20:39 16,1 C 77 % 1010,9 hPa 0,0 l/m 13,0 km/h (3 Bft) W-NW 286 0 min 30 W/m 12,1 C 13,2 C 22,5 km/h (4 Bft)
11.06.2018 20:42 15,9 C 76 % 1010,8 hPa 0,0 l/m 11,8 km/h (2 Bft) NW 322 0 min 28 W/m 11,7 C 13,4 C 19,3 km/h (3 Bft)
11.06.2018 20:45 15,9 C 76 % 1010,9 hPa 0,0 l/m 8,6 km/h (2 Bft) NW 313 0 min 28 W/m 11,7 C 14,8 C 19,3 km/h (3 Bft)
11.06.2018 20:48 15,9 C 76 % 1010,8 hPa 0,0 l/m 12,4 km/h (2 Bft) W 274 0 min 28 W/m 11,7 C 13,2 C 22,5 km/h (4 Bft)
11.06.2018 20:51 15,9 C 76 % 1010,8 hPa 0,0 l/m 13,1 km/h (3 Bft) N-NW 328 0 min 30 W/m 11,7 C 12,9 C 22,5 km/h (4 Bft)
11.06.2018 20:54 15,8 C 75 % 1010,8 hPa 0,0 l/m 10,9 km/h (2 Bft) W-NW 302 0 min 26 W/m 11,4 C 13,6 C 22,5 km/h (4 Bft)
11.06.2018 20:57 15,7 C 76 % 1010,8 hPa 0,0 l/m 8,2 km/h (2 Bft) W-NW 290 0 min 19 W/m 11,5 C 14,7 C 16,1 km/h (3 Bft)
11.06.2018 21:00 15,7 C 76 % 1010,7 hPa 0,0 l/m 8,7 km/h (2 Bft) N-NW 336 0 min 23 W/m 11,5 C 14,5 C 19,3 km/h (3 Bft)
11.06.2018 21:03 15,7 C 77 % 1010,7 hPa 0,0 l/m 10,3 km/h (2 Bft) NW 326 0 min 23 W/m 11,7 C 13,8 C 20,9 km/h (4 Bft)
11.06.2018 21:06 15,7 C 77 % 1010,7 hPa 0,0 l/m 8,5 km/h (2 Bft) N-NW 333 0 min 26 W/m 11,7 C 14,6 C 17,7 km/h (3 Bft)
11.06.2018 21:09 15,7 C 76 % 1010,7 hPa 0,0 l/m 11,1 km/h (2 Bft) W-NW 292 0 min 21 W/m 11,5 C 13,4 C 17,7 km/h (3 Bft)
11.06.2018 21:12 15,6 C 76 % 1010,8 hPa 0,0 l/m 11,7 km/h (2 Bft) W 281 0 min 16 W/m 11,4 C 13,1 C 20,9 km/h (4 Bft)
11.06.2018 21:15 15,6 C 76 % 1010,7 hPa 0,0 l/m 10,8 km/h (2 Bft) N-NW 334 0 min 18 W/m 11,4 C 13,4 C 20,9 km/h (4 Bft)
11.06.2018 21:18 15,5 C 76 % 1010,6 hPa 0,0 l/m 12,2 km/h (2 Bft) W 279 0 min 14 W/m 11,3 C 12,8 C 20,9 km/h (4 Bft)
11.06.2018 21:21 15,5 C 77 % 1010,6 hPa 0,0 l/m 8,7 km/h (2 Bft) W-NW 300 0 min 12 W/m 11,5 C 14,3 C 16,1 km/h (3 Bft)
11.06.2018 21:24 15,5 C 77 % 1010,5 hPa 0,0 l/m 9,3 km/h (2 Bft) W 269 0 min 9 W/m 11,5 C 14,0 C 22,5 km/h (4 Bft)
11.06.2018 21:27 15,6 C 78 % 1010,4 hPa 0,0 l/m 12,3 km/h (2 Bft) W-NW 297 0 min 7 W/m 11,8 C 12,8 C 22,5 km/h (4 Bft)
11.06.2018 21:30 15,6 C 78 % 1010,4 hPa 0,0 l/m 10,5 km/h (2 Bft) W-NW 293 0 min 7 W/m 11,8 C 13,6 C 17,7 km/h (3 Bft)
11.06.2018 21:33 15,7 C 78 % 1010,4 hPa 0,0 l/m 11,4 km/h (2 Bft) W-NW 290 0 min 5 W/m 11,9 C 13,3 C 24,1 km/h (4 Bft)
11.06.2018 21:36 15,7 C 79 % 1010,3 hPa 0,0 l/m 13,5 km/h (3 Bft) NW 325 0 min 5 W/m 12,1 C 12,5 C 25,7 km/h (4 Bft)
11.06.2018 21:39 15,7 C 78 % 1010,4 hPa 0,0 l/m 17,3 km/h (3 Bft) NW 320 0 min 5 W/m 11,9 C 11,4 C 29,0 km/h (5 Bft)
11.06.2018 21:42 15,6 C 78 % 1010,5 hPa 0,0 l/m 14,5 km/h (3 Bft) W 259 0 min 5 W/m 11,8 C 12,1 C 33,8 km/h (5 Bft)
11.06.2018 21:45 15,6 C 78 % 1010,5 hPa 0,0 l/m 10,4 km/h (2 Bft) NW 313 0 min 5 W/m 11,8 C 13,6 C 20,9 km/h (4 Bft)
11.06.2018 21:48 15,5 C 77 % 1010,6 hPa 0,0 l/m 16,2 km/h (3 Bft) N-NW 329 0 min 5 W/m 11,5 C 11,4 C 33,8 km/h (5 Bft)
11.06.2018 21:51 15,4 C 76 % 1010,6 hPa 0,0 l/m 13,6 km/h (3 Bft) W-NW 283 0 min 5 W/m 11,2 C 12,1 C 22,5 km/h (4 Bft)
11.06.2018 21:54 15,3 C 75 % 1010,6 hPa 0,0 l/m 11,0 km/h (2 Bft) NW 319 0 min 5 W/m 10,9 C 13,0 C 19,3 km/h (3 Bft)
11.06.2018 21:57 15,3 C 75 % 1010,7 hPa 0,0 l/m 10,1 km/h (2 Bft) N-NO 32 0 min 0 W/m 10,9 C 13,4 C 19,3 km/h (3 Bft)
11.06.2018 22:00 15,3 C 76 % 1010,7 hPa 0,0 l/m 6,1 km/h (2 Bft) W-NW 289 0 min 0 W/m 11,1 C 15,3 C 12,9 km/h (3 Bft)
11.06.2018 22:03 15,3 C 76 % 1010,8 hPa 0,0 l/m 7,8 km/h (2 Bft) W-NW 301 0 min 0 W/m 11,1 C 14,5 C 17,7 km/h (3 Bft)
11.06.2018 22:06 15,4 C 76 % 1010,8 hPa 0,0 l/m 8,0 km/h (2 Bft) W-SW 248 0 min 0 W/m 11,2 C 14,5 C 16,1 km/h (3 Bft)
11.06.2018 22:09 15,4 C 76 % 1010,7 hPa 0,0 l/m 10,9 km/h (2 Bft) W 280 0 min 0 W/m 11,2 C 13,2 C 20,9 km/h (4 Bft)
11.06.2018 22:12 15,4 C 77 % 1010,8 hPa 0,0 l/m 11,1 km/h (2 Bft) NW 311 0 min 0 W/m 11,4 C 13,1 C 20,9 km/h (4 Bft)
11.06.2018 22:15 15,4 C 77 % 1010,7 hPa 0,0 l/m 10,6 km/h (2 Bft) NW 319 0 min 0 W/m 11,4 C 13,3 C 22,5 km/h (4 Bft)
11.06.2018 22:18 15,4 C 77 % 1010,7 hPa 0,0 l/m 12,0 km/h (2 Bft) N-NW 332 0 min 0 W/m 11,4 C 12,7 C 20,9 km/h (4 Bft)
11.06.2018 22:21 15,4 C 76 % 1010,7 hPa 0,0 l/m 15,4 km/h (3 Bft) NW 326 0 min 0 W/m 11,2 C 11,5 C 24,1 km/h (4 Bft)
11.06.2018 22:24 15,4 C 77 % 1010,7 hPa 0,0 l/m 10,9 km/h (2 Bft) NW 313 0 min 0 W/m 11,4 C 13,2 C 20,9 km/h (4 Bft)
11.06.2018 22:27 15,5 C 77 % 1010,7 hPa 0,0 l/m 10,7 km/h (2 Bft) W 266 0 min 0 W/m 11,5 C 13,4 C 20,9 km/h (4 Bft)
11.06.2018 22:30 15,5 C 77 % 1010,8 hPa 0,0 l/m 11,6 km/h (2 Bft) W-NW 295 0 min 0 W/m 11,5 C 13,0 C 25,7 km/h (4 Bft)
11.06.2018 22:33 15,5 C 77 % 1010,9 hPa 0,0 l/m 11,4 km/h (2 Bft) W-NW 290 0 min 0 W/m 11,5 C 13,1 C 20,9 km/h (4 Bft)
11.06.2018 22:36 15,4 C 77 % 1010,9 hPa 0,0 l/m 10,2 km/h (2 Bft) NW 319 0 min 0 W/m 11,4 C 13,5 C 19,3 km/h (3 Bft)
11.06.2018 22:39 15,4 C 77 % 1010,9 hPa 0,0 l/m 10,4 km/h (2 Bft) NW 308 0 min 0 W/m 11,4 C 13,4 C 16,1 km/h (3 Bft)
11.06.2018 22:42 15,4 C 76 % 1011,0 hPa 0,0 l/m 11,1 km/h (2 Bft) N-NW 329 0 min 0 W/m 11,2 C 13,1 C 19,3 km/h (3 Bft)
11.06.2018 22:45 15,3 C 75 % 1011,0 hPa 0,0 l/m 13,0 km/h (3 Bft) NW 325 0 min 0 W/m 10,9 C 12,2 C 25,7 km/h (4 Bft)
11.06.2018 22:48 15,3 C 73 % 1011,0 hPa 0,0 l/m 14,2 km/h (3 Bft) NW 311 0 min 0 W/m 10,5 C 11,8 C 22,5 km/h (4 Bft)
11.06.2018 22:51 15,2 C 73 % 1010,9 hPa 0,0 l/m 11,6 km/h (2 Bft) NW 315 0 min 0 W/m 10,4 C 12,7 C 22,5 km/h (4 Bft)
11.06.2018 22:54 15,3 C 74 % 1011,0 hPa 0,0 l/m 8,7 km/h (2 Bft) NW 310 0 min 0 W/m 10,7 C 14,1 C 20,9 km/h (4 Bft)
11.06.2018 22:57 15,3 C 75 % 1011,0 hPa 0,0 l/m 11,8 km/h (2 Bft) W-NW 286 0 min 0 W/m 10,9 C 12,7 C 22,5 km/h (4 Bft)
11.06.2018 23:00 15,3 C 76 % 1011,0 hPa 0,0 l/m 9,3 km/h (2 Bft) W-NW 292 0 min 0 W/m 11,1 C 13,8 C 20,9 km/h (4 Bft)
11.06.2018 23:03 15,3 C 75 % 1011,0 hPa 0,0 l/m 8,5 km/h (2 Bft) N-NW 340 0 min 0 W/m 10,9 C 14,2 C 19,3 km/h (3 Bft)
11.06.2018 23:06 15,3 C 74 % 1011,0 hPa 0,0 l/m 14,2 km/h (3 Bft) N-NW 341 0 min 0 W/m 10,7 C 11,8 C 24,1 km/h (4 Bft)
11.06.2018 23:09 15,3 C 75 % 1011,0 hPa 0,0 l/m 12,3 km/h (2 Bft) N-NW 331 0 min 0 W/m 10,9 C 12,5 C 22,5 km/h (4 Bft)
11.06.2018 23:12 15,3 C 74 % 1011,0 hPa 0,0 l/m 15,7 km/h (3 Bft) N-NW 340 0 min 0 W/m 10,7 C 11,3 C 27,4 km/h (5 Bft)
11.06.2018 23:15 15,2 C 74 % 1011,1 hPa 0,0 l/m 13,0 km/h (3 Bft) NW 324 0 min 0 W/m 10,6 C 12,1 C 24,1 km/h (4 Bft)
11.06.2018 23:18 15,2 C 73 % 1011,2 hPa 0,0 l/m 13,2 km/h (3 Bft) W-NW 284 0 min 0 W/m 10,4 C 12,1 C 27,4 km/h (5 Bft)
11.06.2018 23:21 15,2 C 73 % 1011,2 hPa 0,0 l/m 16,5 km/h (3 Bft) N 5 0 min 0 W/m 10,4 C 11,0 C 29,0 km/h (5 Bft)
11.06.2018 23:24 15,1 C 72 % 1011,3 hPa 0,0 l/m 14,1 km/h (3 Bft) W-NW 300 0 min 0 W/m 10,1 C 11,6 C 22,5 km/h (4 Bft)
11.06.2018 23:27 15,1 C 71 % 1011,3 hPa 0,0 l/m 14,7 km/h (3 Bft) W 269 0 min 0 W/m 9,9 C 11,4 C 24,1 km/h (4 Bft)
11.06.2018 23:30 15,1 C 72 % 1011,3 hPa 0,0 l/m 8,0 km/h (2 Bft) W 279 0 min 0 W/m 10,1 C 14,2 C 19,3 km/h (3 Bft)
11.06.2018 23:33 15,1 C 73 % 1011,3 hPa 0,0 l/m 10,4 km/h (2 Bft) N-NW 331 0 min 0 W/m 10,3 C 13,1 C 29,0 km/h (5 Bft)
11.06.2018 23:36 15,1 C 73 % 1011,1 hPa 0,0 l/m 13,2 km/h (3 Bft) N-NW 334 0 min 0 W/m 10,3 C 11,9 C 25,7 km/h (4 Bft)
11.06.2018 23:39 15,2 C 73 % 1011,3 hPa 0,0 l/m 14,0 km/h (3 Bft) N-NW 348 0 min 0 W/m 10,4 C 11,8 C 29,0 km/h (5 Bft)
11.06.2018 23:42 15,2 C 73 % 1011,2 hPa 0,0 l/m 11,2 km/h (2 Bft) N-NW 346 0 min 0 W/m 10,4 C 12,8 C 22,5 km/h (4 Bft)
11.06.2018 23:45 15,2 C 73 % 1011,2 hPa 0,0 l/m 13,5 km/h (3 Bft) N-NW 328 0 min 0 W/m 10,4 C 11,9 C 25,7 km/h (4 Bft)
11.06.2018 23:48 15,1 C 72 % 1011,1 hPa 0,0 l/m 13,8 km/h (3 Bft) N-NW 336 0 min 0 W/m 10,1 C 11,7 C 20,9 km/h (4 Bft)
11.06.2018 23:51 15,1 C 72 % 1011,0 hPa 0,0 l/m 13,9 km/h (3 Bft) W-NW 299 0 min 0 W/m 10,1 C 11,7 C 22,5 km/h (4 Bft)
11.06.2018 23:54 15,1 C 72 % 1011,0 hPa 0,0 l/m 15,2 km/h (3 Bft) N-NW 332 0 min 0 W/m 10,1 C 11,2 C 22,5 km/h (4 Bft)
11.06.2018 23:57 15,1 C 73 % 1011,0 hPa 0,0 l/m 12,8 km/h (3 Bft) NW 305 0 min 0 W/m 10,3 C 12,1 C 24,1 km/h (4 Bft)
_ Min-Zeit 23:24 16:24 21:36 - 04:03 - - - - 23:27 23:21 01:00
Minimum _ 15,1 C 67 % 1010,3 hPa - 3,4 km/h (1 Bft) - - - - 9,9 C 11,0 C 11,3 km/h (2 Bft)
_ Max-Zeit 16:21 03:09 13:15 00:00 21:39 - - 17:54 16:18 12:36 15:48 21:42
Maximum _ 18,9 C 83 % 1013,2 hPa 0,0 l/m 17,3 km/h
NW (3 Bft)
- - 6 min 860 W/m 13,6 C 18,7 C 33,8 km/h
W-NW (5 Bft)
Durchschnitt _ 16,5 C 76 % 1011,8 hPa #0,0 l/m 9,2 km/h (2 Bft) W - #2:09 h 222 W/m 12,1 C 15,1 C 18,5 km/h (3 Bft)
2018 Cux-Wetter.de -Die Nutzung der Wetterdaten nur mit ausdrcklicher Genehmigung